<?xml version="1.0" encoding="UTF-8" standalone="no" ?>
<gpx xmlns="http://www.topografix.com/GPX/1/1" xmlns:xsi="http://www.w3.org/2001/XMLSchema-instance" xsi:schemaLocation="http://www.topografix.com/GPX/1/1 http://www.topografix.com/GPX/1/1/gpx.xsd" version="1.1" creator="VisuGPX - https://www.visugpx.com">
  <metadata>
    <name>Balade Chapareillan</name>
    <desc><![CDATA[A la découverte des abymes par les sentiers]]></desc>
  </metadata>
  <trk>
    <name><![CDATA[2013-05-11 15:42]]></name>
    <desc><![CDATA[<h1>OruxMaps</h1><br /><hr align="center" width="480" style="height: 2px; width: 517px"/><h2>Nom: 2013-05-11 15:42</h2><br /><p>Temps de départ: 05/11/2013 15:43</p><p>Temps d'arrivée: 05/11/2013 17:33</p><p>Distance: 5,8 km (01:50)</p><p>Temps déplacement: 00:01</p><p>Vitesse moyenne: 3,1 km/h</p><p>Vitesse moyenne: 209,3 km/h</p><p>Vitess Max.: 10,6 km/h</p><p>Altitude minimale: 460 m</p><p>Altitude maximale: 578 m</p><p>Vitesse d'élévation: 143,9 m/h</p><p>Vitesse de descente: -148,5 m/h</p><p>Gain Altitude: 120 m</p><p>Perte Altitude: -125 m</p><p>Temps d'élévation: 00:50</p><p>Temps de descente: 00:50</p><hr align="center" width="480" style="height: 2px; width: 517px"/>]]></desc>
    <trkseg>
      <trkpt lat="45.48586" lon="5.95611">
        <ele>483.46</ele>
        <time>2013-05-11T13:43:26Z</time>
      </trkpt>
      <trkpt lat="45.48589" lon="5.95606">
        <ele>483.46</ele>
        <time>2013-05-11T13:43:31Z</time>
      </trkpt>
      <trkpt lat="45.48593" lon="5.95602">
        <ele>483.09</ele>
        <time>2013-05-11T13:43:44Z</time>
      </trkpt>
      <trkpt lat="45.48598" lon="5.956">
        <ele>483.21</ele>
        <time>2013-05-11T13:43:49Z</time>
      </trkpt>
      <trkpt lat="45.48602" lon="5.95596">
        <ele>483.12</ele>
        <time>2013-05-11T13:43:56Z</time>
      </trkpt>
      <trkpt lat="45.48607" lon="5.95593">
        <ele>482.98</ele>
        <time>2013-05-11T13:44:03Z</time>
      </trkpt>
      <trkpt lat="45.48612" lon="5.95595">
        <ele>483.33</ele>
        <time>2013-05-11T13:44:10Z</time>
      </trkpt>
      <trkpt lat="45.48618" lon="5.95596">
        <ele>483.26</ele>
        <time>2013-05-11T13:44:15Z</time>
      </trkpt>
      <trkpt lat="45.48623" lon="5.95597">
        <ele>483.05</ele>
        <time>2013-05-11T13:44:19Z</time>
      </trkpt>
      <trkpt lat="45.48627" lon="5.956">
        <ele>482.83</ele>
        <time>2013-05-11T13:44:22Z</time>
      </trkpt>
      <trkpt lat="45.48632" lon="5.956">
        <ele>482.67</ele>
        <time>2013-05-11T13:44:24Z</time>
      </trkpt>
      <trkpt lat="45.48637" lon="5.95602">
        <ele>482.2</ele>
        <time>2013-05-11T13:44:28Z</time>
      </trkpt>
      <trkpt lat="45.48641" lon="5.95608">
        <ele>481.19</ele>
        <time>2013-05-11T13:44:36Z</time>
      </trkpt>
      <trkpt lat="45.48646" lon="5.95608">
        <ele>480.83</ele>
        <time>2013-05-11T13:45:04Z</time>
      </trkpt>
      <trkpt lat="45.48652" lon="5.95609">
        <ele>480.53</ele>
        <time>2013-05-11T13:45:13Z</time>
      </trkpt>
      <trkpt lat="45.48657" lon="5.95608">
        <ele>480.42</ele>
        <time>2013-05-11T13:45:19Z</time>
      </trkpt>
      <trkpt lat="45.4866" lon="5.95602">
        <ele>480.4</ele>
        <time>2013-05-11T13:45:22Z</time>
      </trkpt>
      <trkpt lat="45.48664" lon="5.95599">
        <ele>480.34</ele>
        <time>2013-05-11T13:45:25Z</time>
      </trkpt>
      <trkpt lat="45.48668" lon="5.95605">
        <ele>479.93</ele>
        <time>2013-05-11T13:45:42Z</time>
      </trkpt>
      <trkpt lat="45.48672" lon="5.95609">
        <ele>479.05</ele>
        <time>2013-05-11T13:45:50Z</time>
      </trkpt>
      <trkpt lat="45.48676" lon="5.95615">
        <ele>478.68</ele>
        <time>2013-05-11T13:45:57Z</time>
      </trkpt>
      <trkpt lat="45.48679" lon="5.95619">
        <ele>478.57</ele>
        <time>2013-05-11T13:46:08Z</time>
      </trkpt>
      <trkpt lat="45.48684" lon="5.95618">
        <ele>478.64</ele>
        <time>2013-05-11T13:46:16Z</time>
      </trkpt>
      <trkpt lat="45.48689" lon="5.95616">
        <ele>478.58</ele>
        <time>2013-05-11T13:46:27Z</time>
      </trkpt>
      <trkpt lat="45.48693" lon="5.95612">
        <ele>478.58</ele>
        <time>2013-05-11T13:46:30Z</time>
      </trkpt>
      <trkpt lat="45.48698" lon="5.95613">
        <ele>478.1</ele>
        <time>2013-05-11T13:46:59Z</time>
      </trkpt>
      <trkpt lat="45.48697" lon="5.9562">
        <ele>477.98</ele>
        <time>2013-05-11T13:47:16Z</time>
      </trkpt>
      <trkpt lat="45.48702" lon="5.9562">
        <ele>477.92</ele>
        <time>2013-05-11T13:47:31Z</time>
      </trkpt>
      <trkpt lat="45.48707" lon="5.95622">
        <ele>477.89</ele>
        <time>2013-05-11T13:47:37Z</time>
      </trkpt>
      <trkpt lat="45.48714" lon="5.95612">
        <ele>477.81</ele>
        <time>2013-05-11T13:47:42Z</time>
      </trkpt>
      <trkpt lat="45.48714" lon="5.95605">
        <ele>477.66</ele>
        <time>2013-05-11T13:47:46Z</time>
      </trkpt>
      <trkpt lat="45.48714" lon="5.95598">
        <ele>477.42</ele>
        <time>2013-05-11T13:47:54Z</time>
      </trkpt>
      <trkpt lat="45.48716" lon="5.95592">
        <ele>477.29</ele>
        <time>2013-05-11T13:47:59Z</time>
      </trkpt>
      <trkpt lat="45.48716" lon="5.95585">
        <ele>477.21</ele>
        <time>2013-05-11T13:48:03Z</time>
      </trkpt>
      <trkpt lat="45.48714" lon="5.95579">
        <ele>477.37</ele>
        <time>2013-05-11T13:48:09Z</time>
      </trkpt>
      <trkpt lat="45.48709" lon="5.95575">
        <ele>477.47</ele>
        <time>2013-05-11T13:48:13Z</time>
      </trkpt>
      <trkpt lat="45.48705" lon="5.95571">
        <ele>477.43</ele>
        <time>2013-05-11T13:48:18Z</time>
      </trkpt>
      <trkpt lat="45.48704" lon="5.95565">
        <ele>477.38</ele>
        <time>2013-05-11T13:48:24Z</time>
      </trkpt>
      <trkpt lat="45.487" lon="5.9556">
        <ele>477.74</ele>
        <time>2013-05-11T13:48:33Z</time>
      </trkpt>
      <trkpt lat="45.48703" lon="5.95554">
        <ele>477.82</ele>
        <time>2013-05-11T13:48:38Z</time>
      </trkpt>
      <trkpt lat="45.48705" lon="5.95546">
        <ele>477.52</ele>
        <time>2013-05-11T13:48:49Z</time>
      </trkpt>
      <trkpt lat="45.48705" lon="5.95538">
        <ele>477.69</ele>
        <time>2013-05-11T13:48:56Z</time>
      </trkpt>
      <trkpt lat="45.48711" lon="5.95531">
        <ele>477.08</ele>
        <time>2013-05-11T13:49:19Z</time>
      </trkpt>
      <trkpt lat="45.48716" lon="5.95525">
        <ele>476.7</ele>
        <time>2013-05-11T13:49:47Z</time>
      </trkpt>
      <trkpt lat="45.48717" lon="5.95519">
        <ele>476.38</ele>
        <time>2013-05-11T13:49:52Z</time>
      </trkpt>
      <trkpt lat="45.48713" lon="5.95511">
        <ele>475.97</ele>
        <time>2013-05-11T13:49:57Z</time>
      </trkpt>
      <trkpt lat="45.48718" lon="5.95512">
        <ele>476.05</ele>
        <time>2013-05-11T13:50:04Z</time>
      </trkpt>
      <trkpt lat="45.4872" lon="5.95506">
        <ele>476.33</ele>
        <time>2013-05-11T13:50:11Z</time>
      </trkpt>
      <trkpt lat="45.4872" lon="5.95499">
        <ele>476.43</ele>
        <time>2013-05-11T13:50:15Z</time>
      </trkpt>
      <trkpt lat="45.48722" lon="5.95492">
        <ele>476.47</ele>
        <time>2013-05-11T13:50:20Z</time>
      </trkpt>
      <trkpt lat="45.4872" lon="5.95486">
        <ele>476.85</ele>
        <time>2013-05-11T13:50:26Z</time>
      </trkpt>
      <trkpt lat="45.48722" lon="5.95479">
        <ele>477.18</ele>
        <time>2013-05-11T13:50:36Z</time>
      </trkpt>
      <trkpt lat="45.48722" lon="5.95473">
        <ele>477.33</ele>
        <time>2013-05-11T13:50:43Z</time>
      </trkpt>
      <trkpt lat="45.48724" lon="5.95466">
        <ele>477.23</ele>
        <time>2013-05-11T13:50:49Z</time>
      </trkpt>
      <trkpt lat="45.48724" lon="5.95459">
        <ele>477.58</ele>
        <time>2013-05-11T13:50:54Z</time>
      </trkpt>
      <trkpt lat="45.48724" lon="5.95452">
        <ele>477.92</ele>
        <time>2013-05-11T13:50:59Z</time>
      </trkpt>
      <trkpt lat="45.48723" lon="5.95444">
        <ele>478.32</ele>
        <time>2013-05-11T13:51:05Z</time>
      </trkpt>
      <trkpt lat="45.48726" lon="5.95439">
        <ele>478.3</ele>
        <time>2013-05-11T13:51:10Z</time>
      </trkpt>
      <trkpt lat="45.48727" lon="5.95432">
        <ele>478.12</ele>
        <time>2013-05-11T13:51:17Z</time>
      </trkpt>
      <trkpt lat="45.48729" lon="5.95426">
        <ele>477.74</ele>
        <time>2013-05-11T13:51:25Z</time>
      </trkpt>
      <trkpt lat="45.48728" lon="5.95419">
        <ele>478.1</ele>
        <time>2013-05-11T13:51:38Z</time>
      </trkpt>
      <trkpt lat="45.48729" lon="5.95412">
        <ele>478.14</ele>
        <time>2013-05-11T13:51:44Z</time>
      </trkpt>
      <trkpt lat="45.48731" lon="5.95405">
        <ele>478.03</ele>
        <time>2013-05-11T13:51:49Z</time>
      </trkpt>
      <trkpt lat="45.48728" lon="5.95398">
        <ele>477.95</ele>
        <time>2013-05-11T13:51:55Z</time>
      </trkpt>
      <trkpt lat="45.48731" lon="5.95392">
        <ele>477.97</ele>
        <time>2013-05-11T13:51:58Z</time>
      </trkpt>
      <trkpt lat="45.48732" lon="5.95384">
        <ele>477.86</ele>
        <time>2013-05-11T13:52:03Z</time>
      </trkpt>
      <trkpt lat="45.48732" lon="5.95377">
        <ele>477.44</ele>
        <time>2013-05-11T13:52:09Z</time>
      </trkpt>
      <trkpt lat="45.48736" lon="5.95371">
        <ele>477.19</ele>
        <time>2013-05-11T13:52:14Z</time>
      </trkpt>
      <trkpt lat="45.48739" lon="5.95366">
        <ele>476.97</ele>
        <time>2013-05-11T13:52:18Z</time>
      </trkpt>
      <trkpt lat="45.48739" lon="5.95359">
        <ele>476.98</ele>
        <time>2013-05-11T13:52:24Z</time>
      </trkpt>
      <trkpt lat="45.48739" lon="5.95351">
        <ele>477.61</ele>
        <time>2013-05-11T13:52:30Z</time>
      </trkpt>
      <trkpt lat="45.48737" lon="5.95345">
        <ele>478.36</ele>
        <time>2013-05-11T13:52:36Z</time>
      </trkpt>
      <trkpt lat="45.48736" lon="5.95339">
        <ele>479.19</ele>
        <time>2013-05-11T13:52:42Z</time>
      </trkpt>
      <trkpt lat="45.48735" lon="5.95332">
        <ele>479.65</ele>
        <time>2013-05-11T13:52:48Z</time>
      </trkpt>
      <trkpt lat="45.48732" lon="5.95326">
        <ele>480.38</ele>
        <time>2013-05-11T13:52:55Z</time>
      </trkpt>
      <trkpt lat="45.48728" lon="5.95322">
        <ele>480.88</ele>
        <time>2013-05-11T13:53:02Z</time>
      </trkpt>
      <trkpt lat="45.48723" lon="5.95319">
        <ele>481.3</ele>
        <time>2013-05-11T13:53:09Z</time>
      </trkpt>
      <trkpt lat="45.48722" lon="5.95312">
        <ele>481.76</ele>
        <time>2013-05-11T13:53:16Z</time>
      </trkpt>
      <trkpt lat="45.48722" lon="5.95305">
        <ele>482.53</ele>
        <time>2013-05-11T13:53:30Z</time>
      </trkpt>
      <trkpt lat="45.4872" lon="5.95298">
        <ele>482.78</ele>
        <time>2013-05-11T13:53:36Z</time>
      </trkpt>
      <trkpt lat="45.48718" lon="5.95293">
        <ele>483</ele>
        <time>2013-05-11T13:53:42Z</time>
      </trkpt>
      <trkpt lat="45.48715" lon="5.95286">
        <ele>483.71</ele>
        <time>2013-05-11T13:53:53Z</time>
      </trkpt>
      <trkpt lat="45.4871" lon="5.95285">
        <ele>484.92</ele>
        <time>2013-05-11T13:54:00Z</time>
      </trkpt>
      <trkpt lat="45.48707" lon="5.9528">
        <ele>486.04</ele>
        <time>2013-05-11T13:54:10Z</time>
      </trkpt>
      <trkpt lat="45.48705" lon="5.95273">
        <ele>486.33</ele>
        <time>2013-05-11T13:54:16Z</time>
      </trkpt>
      <trkpt lat="45.48704" lon="5.95265">
        <ele>486.61</ele>
        <time>2013-05-11T13:54:19Z</time>
      </trkpt>
      <trkpt lat="45.48702" lon="5.95258">
        <ele>487.12</ele>
        <time>2013-05-11T13:54:21Z</time>
      </trkpt>
      <trkpt lat="45.487" lon="5.95252">
        <ele>488.77</ele>
        <time>2013-05-11T13:54:30Z</time>
      </trkpt>
      <trkpt lat="45.48695" lon="5.95247">
        <ele>490.39</ele>
        <time>2013-05-11T13:54:38Z</time>
      </trkpt>
      <trkpt lat="45.48689" lon="5.95249">
        <ele>491.28</ele>
        <time>2013-05-11T13:54:45Z</time>
      </trkpt>
      <trkpt lat="45.48686" lon="5.95256">
        <ele>491.79</ele>
        <time>2013-05-11T13:54:49Z</time>
      </trkpt>
      <trkpt lat="45.48686" lon="5.95263">
        <ele>492.63</ele>
        <time>2013-05-11T13:54:54Z</time>
      </trkpt>
      <trkpt lat="45.48682" lon="5.95268">
        <ele>493.35</ele>
        <time>2013-05-11T13:55:01Z</time>
      </trkpt>
      <trkpt lat="45.4868" lon="5.95275">
        <ele>493.94</ele>
        <time>2013-05-11T13:55:04Z</time>
      </trkpt>
      <trkpt lat="45.48677" lon="5.95279">
        <ele>494.57</ele>
        <time>2013-05-11T13:55:08Z</time>
      </trkpt>
      <trkpt lat="45.48676" lon="5.95286">
        <ele>495.24</ele>
        <time>2013-05-11T13:55:13Z</time>
      </trkpt>
      <trkpt lat="45.48675" lon="5.95292">
        <ele>496.07</ele>
        <time>2013-05-11T13:55:19Z</time>
      </trkpt>
      <trkpt lat="45.48677" lon="5.953">
        <ele>497.37</ele>
        <time>2013-05-11T13:55:28Z</time>
      </trkpt>
      <trkpt lat="45.48676" lon="5.95306">
        <ele>498.21</ele>
        <time>2013-05-11T13:55:34Z</time>
      </trkpt>
      <trkpt lat="45.48673" lon="5.95312">
        <ele>499.14</ele>
        <time>2013-05-11T13:55:40Z</time>
      </trkpt>
      <trkpt lat="45.48669" lon="5.95317">
        <ele>499.92</ele>
        <time>2013-05-11T13:55:46Z</time>
      </trkpt>
      <trkpt lat="45.48669" lon="5.95324">
        <ele>500.89</ele>
        <time>2013-05-11T13:55:54Z</time>
      </trkpt>
      <trkpt lat="45.48666" lon="5.9533">
        <ele>501.76</ele>
        <time>2013-05-11T13:55:59Z</time>
      </trkpt>
      <trkpt lat="45.48664" lon="5.95336">
        <ele>504.05</ele>
        <time>2013-05-11T13:56:09Z</time>
      </trkpt>
      <trkpt lat="45.48661" lon="5.95343">
        <ele>505.46</ele>
        <time>2013-05-11T13:56:16Z</time>
      </trkpt>
      <trkpt lat="45.48657" lon="5.95347">
        <ele>506.46</ele>
        <time>2013-05-11T13:56:22Z</time>
      </trkpt>
      <trkpt lat="45.48652" lon="5.95345">
        <ele>507.91</ele>
        <time>2013-05-11T13:56:31Z</time>
      </trkpt>
      <trkpt lat="45.48647" lon="5.95342">
        <ele>508.49</ele>
        <time>2013-05-11T13:56:36Z</time>
      </trkpt>
      <trkpt lat="45.48643" lon="5.95343">
        <ele>509.12</ele>
        <time>2013-05-11T13:56:43Z</time>
      </trkpt>
      <trkpt lat="45.48638" lon="5.95341">
        <ele>509.38</ele>
        <time>2013-05-11T13:56:47Z</time>
      </trkpt>
      <trkpt lat="45.48634" lon="5.9534">
        <ele>509.73</ele>
        <time>2013-05-11T13:56:54Z</time>
      </trkpt>
      <trkpt lat="45.48627" lon="5.95341">
        <ele>510.05</ele>
        <time>2013-05-11T13:56:59Z</time>
      </trkpt>
      <trkpt lat="45.48622" lon="5.95345">
        <ele>510.37</ele>
        <time>2013-05-11T13:57:04Z</time>
      </trkpt>
      <trkpt lat="45.48618" lon="5.95346">
        <ele>510.74</ele>
        <time>2013-05-11T13:57:09Z</time>
      </trkpt>
      <trkpt lat="45.48613" lon="5.95349">
        <ele>511.14</ele>
        <time>2013-05-11T13:57:14Z</time>
      </trkpt>
      <trkpt lat="45.48612" lon="5.95341">
        <ele>511.67</ele>
        <time>2013-05-11T13:57:20Z</time>
      </trkpt>
      <trkpt lat="45.48608" lon="5.95337">
        <ele>512.21</ele>
        <time>2013-05-11T13:57:26Z</time>
      </trkpt>
      <trkpt lat="45.48602" lon="5.95336">
        <ele>512.66</ele>
        <time>2013-05-11T13:57:31Z</time>
      </trkpt>
      <trkpt lat="45.48597" lon="5.95335">
        <ele>513.39</ele>
        <time>2013-05-11T13:57:40Z</time>
      </trkpt>
      <trkpt lat="45.48593" lon="5.9534">
        <ele>513.6</ele>
        <time>2013-05-11T13:57:44Z</time>
      </trkpt>
      <trkpt lat="45.48588" lon="5.95339">
        <ele>514.07</ele>
        <time>2013-05-11T13:57:55Z</time>
      </trkpt>
      <trkpt lat="45.48586" lon="5.95333">
        <ele>514.41</ele>
        <time>2013-05-11T13:58:02Z</time>
      </trkpt>
      <trkpt lat="45.48583" lon="5.95337">
        <ele>514.57</ele>
        <time>2013-05-11T13:58:06Z</time>
      </trkpt>
      <trkpt lat="45.48578" lon="5.95337">
        <ele>514.71</ele>
        <time>2013-05-11T13:58:11Z</time>
      </trkpt>
      <trkpt lat="45.48572" lon="5.95336">
        <ele>514.81</ele>
        <time>2013-05-11T13:58:14Z</time>
      </trkpt>
      <trkpt lat="45.48568" lon="5.95337">
        <ele>514.85</ele>
        <time>2013-05-11T13:58:17Z</time>
      </trkpt>
      <trkpt lat="45.48563" lon="5.95338">
        <ele>515.29</ele>
        <time>2013-05-11T13:58:23Z</time>
      </trkpt>
      <trkpt lat="45.48558" lon="5.95339">
        <ele>515.86</ele>
        <time>2013-05-11T13:58:29Z</time>
      </trkpt>
      <trkpt lat="45.48553" lon="5.95342">
        <ele>516.27</ele>
        <time>2013-05-11T13:58:34Z</time>
      </trkpt>
      <trkpt lat="45.48549" lon="5.95342">
        <ele>516.87</ele>
        <time>2013-05-11T13:58:41Z</time>
      </trkpt>
      <trkpt lat="45.48545" lon="5.95347">
        <ele>517.41</ele>
        <time>2013-05-11T13:58:47Z</time>
      </trkpt>
      <trkpt lat="45.48543" lon="5.95354">
        <ele>517.9</ele>
        <time>2013-05-11T13:58:53Z</time>
      </trkpt>
      <trkpt lat="45.4854" lon="5.95359">
        <ele>518.16</ele>
        <time>2013-05-11T13:58:57Z</time>
      </trkpt>
      <trkpt lat="45.48536" lon="5.95363">
        <ele>518.57</ele>
        <time>2013-05-11T13:59:02Z</time>
      </trkpt>
      <trkpt lat="45.48533" lon="5.95368">
        <ele>518.91</ele>
        <time>2013-05-11T13:59:06Z</time>
      </trkpt>
      <trkpt lat="45.48528" lon="5.95372">
        <ele>519.16</ele>
        <time>2013-05-11T13:59:10Z</time>
      </trkpt>
      <trkpt lat="45.48524" lon="5.95377">
        <ele>519.57</ele>
        <time>2013-05-11T13:59:15Z</time>
      </trkpt>
      <trkpt lat="45.48521" lon="5.95383">
        <ele>519.87</ele>
        <time>2013-05-11T13:59:19Z</time>
      </trkpt>
      <trkpt lat="45.48517" lon="5.95389">
        <ele>520.07</ele>
        <time>2013-05-11T13:59:24Z</time>
      </trkpt>
      <trkpt lat="45.48513" lon="5.95394">
        <ele>520.35</ele>
        <time>2013-05-11T13:59:30Z</time>
      </trkpt>
      <trkpt lat="45.4851" lon="5.954">
        <ele>520.47</ele>
        <time>2013-05-11T13:59:35Z</time>
      </trkpt>
      <trkpt lat="45.48506" lon="5.95404">
        <ele>520.56</ele>
        <time>2013-05-11T13:59:41Z</time>
      </trkpt>
      <trkpt lat="45.48501" lon="5.95407">
        <ele>520.57</ele>
        <time>2013-05-11T13:59:46Z</time>
      </trkpt>
      <trkpt lat="45.48497" lon="5.95409">
        <ele>520.58</ele>
        <time>2013-05-11T13:59:52Z</time>
      </trkpt>
      <trkpt lat="45.48492" lon="5.95412">
        <ele>520.58</ele>
        <time>2013-05-11T13:59:56Z</time>
      </trkpt>
      <trkpt lat="45.48487" lon="5.9541">
        <ele>520.65</ele>
        <time>2013-05-11T14:00:05Z</time>
      </trkpt>
      <trkpt lat="45.48483" lon="5.95412">
        <ele>520.59</ele>
        <time>2013-05-11T14:00:10Z</time>
      </trkpt>
      <trkpt lat="45.48476" lon="5.95408">
        <ele>520.49</ele>
        <time>2013-05-11T14:00:19Z</time>
      </trkpt>
      <trkpt lat="45.4847" lon="5.9541">
        <ele>520.48</ele>
        <time>2013-05-11T14:00:22Z</time>
      </trkpt>
      <trkpt lat="45.48465" lon="5.95412">
        <ele>520.44</ele>
        <time>2013-05-11T14:00:25Z</time>
      </trkpt>
      <trkpt lat="45.4846" lon="5.95415">
        <ele>520.45</ele>
        <time>2013-05-11T14:00:31Z</time>
      </trkpt>
      <trkpt lat="45.48454" lon="5.95419">
        <ele>520.61</ele>
        <time>2013-05-11T14:00:36Z</time>
      </trkpt>
      <trkpt lat="45.4845" lon="5.95422">
        <ele>520.88</ele>
        <time>2013-05-11T14:00:41Z</time>
      </trkpt>
      <trkpt lat="45.48446" lon="5.95426">
        <ele>521.13</ele>
        <time>2013-05-11T14:00:44Z</time>
      </trkpt>
      <trkpt lat="45.48442" lon="5.95427">
        <ele>521.48</ele>
        <time>2013-05-11T14:00:50Z</time>
      </trkpt>
      <trkpt lat="45.48439" lon="5.95422">
        <ele>521.56</ele>
        <time>2013-05-11T14:01:05Z</time>
      </trkpt>
      <trkpt lat="45.48437" lon="5.9543">
        <ele>522.27</ele>
        <time>2013-05-11T14:02:09Z</time>
      </trkpt>
      <trkpt lat="45.48433" lon="5.95435">
        <ele>522.43</ele>
        <time>2013-05-11T14:02:12Z</time>
      </trkpt>
      <trkpt lat="45.48431" lon="5.95441">
        <ele>523.66</ele>
        <time>2013-05-11T14:03:50Z</time>
      </trkpt>
      <trkpt lat="45.48428" lon="5.95448">
        <ele>523.65</ele>
        <time>2013-05-11T14:03:54Z</time>
      </trkpt>
      <trkpt lat="45.48427" lon="5.95455">
        <ele>523.67</ele>
        <time>2013-05-11T14:03:58Z</time>
      </trkpt>
      <trkpt lat="45.48428" lon="5.95447">
        <ele>523.51</ele>
        <time>2013-05-11T14:04:14Z</time>
      </trkpt>
      <trkpt lat="45.48431" lon="5.95441">
        <ele>523.67</ele>
        <time>2013-05-11T14:04:31Z</time>
      </trkpt>
      <trkpt lat="45.4843" lon="5.95435">
        <ele>524.04</ele>
        <time>2013-05-11T14:04:41Z</time>
      </trkpt>
      <trkpt lat="45.48425" lon="5.95435">
        <ele>524.38</ele>
        <time>2013-05-11T14:04:51Z</time>
      </trkpt>
      <trkpt lat="45.48425" lon="5.95427">
        <ele>524.55</ele>
        <time>2013-05-11T14:05:00Z</time>
      </trkpt>
      <trkpt lat="45.4842" lon="5.95426">
        <ele>524.8</ele>
        <time>2013-05-11T14:05:08Z</time>
      </trkpt>
      <trkpt lat="45.48416" lon="5.9543">
        <ele>524.97</ele>
        <time>2013-05-11T14:05:14Z</time>
      </trkpt>
      <trkpt lat="45.48413" lon="5.95436">
        <ele>525.18</ele>
        <time>2013-05-11T14:05:21Z</time>
      </trkpt>
      <trkpt lat="45.48409" lon="5.9544">
        <ele>525.4</ele>
        <time>2013-05-11T14:05:27Z</time>
      </trkpt>
      <trkpt lat="45.48405" lon="5.95441">
        <ele>525.67</ele>
        <time>2013-05-11T14:05:33Z</time>
      </trkpt>
      <trkpt lat="45.48401" lon="5.95437">
        <ele>525.9</ele>
        <time>2013-05-11T14:05:41Z</time>
      </trkpt>
      <trkpt lat="45.48396" lon="5.95435">
        <ele>525.95</ele>
        <time>2013-05-11T14:05:45Z</time>
      </trkpt>
      <trkpt lat="45.48391" lon="5.95438">
        <ele>526.06</ele>
        <time>2013-05-11T14:05:49Z</time>
      </trkpt>
      <trkpt lat="45.48386" lon="5.9544">
        <ele>526.23</ele>
        <time>2013-05-11T14:05:54Z</time>
      </trkpt>
      <trkpt lat="45.48382" lon="5.95444">
        <ele>526.27</ele>
        <time>2013-05-11T14:05:55Z</time>
      </trkpt>
      <trkpt lat="45.48378" lon="5.95448">
        <ele>526.39</ele>
        <time>2013-05-11T14:05:58Z</time>
      </trkpt>
      <trkpt lat="45.48373" lon="5.95451">
        <ele>526.54</ele>
        <time>2013-05-11T14:06:02Z</time>
      </trkpt>
      <trkpt lat="45.48368" lon="5.95452">
        <ele>526.69</ele>
        <time>2013-05-11T14:06:06Z</time>
      </trkpt>
      <trkpt lat="45.48362" lon="5.95447">
        <ele>526.77</ele>
        <time>2013-05-11T14:06:08Z</time>
      </trkpt>
      <trkpt lat="45.48365" lon="5.95441">
        <ele>527.2</ele>
        <time>2013-05-11T14:06:16Z</time>
      </trkpt>
      <trkpt lat="45.48367" lon="5.95435">
        <ele>527.48</ele>
        <time>2013-05-11T14:06:22Z</time>
      </trkpt>
      <trkpt lat="45.48373" lon="5.95434">
        <ele>527.93</ele>
        <time>2013-05-11T14:06:31Z</time>
      </trkpt>
      <trkpt lat="45.48376" lon="5.95439">
        <ele>528.34</ele>
        <time>2013-05-11T14:06:40Z</time>
      </trkpt>
      <trkpt lat="45.48372" lon="5.9543">
        <ele>528.59</ele>
        <time>2013-05-11T14:06:46Z</time>
      </trkpt>
      <trkpt lat="45.48371" lon="5.95422">
        <ele>528.69</ele>
        <time>2013-05-11T14:06:48Z</time>
      </trkpt>
      <trkpt lat="45.48369" lon="5.95416">
        <ele>528.93</ele>
        <time>2013-05-11T14:06:53Z</time>
      </trkpt>
      <trkpt lat="45.48368" lon="5.9541">
        <ele>529.44</ele>
        <time>2013-05-11T14:07:10Z</time>
      </trkpt>
      <trkpt lat="45.48365" lon="5.95403">
        <ele>529.54</ele>
        <time>2013-05-11T14:07:15Z</time>
      </trkpt>
      <trkpt lat="45.48371" lon="5.95404">
        <ele>529.64</ele>
        <time>2013-05-11T14:07:19Z</time>
      </trkpt>
      <trkpt lat="45.48381" lon="5.954">
        <ele>529.75</ele>
        <time>2013-05-11T14:07:32Z</time>
      </trkpt>
      <trkpt lat="45.48383" lon="5.95394">
        <ele>529.64</ele>
        <time>2013-05-11T14:07:37Z</time>
      </trkpt>
      <trkpt lat="45.48383" lon="5.95387">
        <ele>529.61</ele>
        <time>2013-05-11T14:07:43Z</time>
      </trkpt>
      <trkpt lat="45.48381" lon="5.95394">
        <ele>529.56</ele>
        <time>2013-05-11T14:07:56Z</time>
      </trkpt>
      <trkpt lat="45.48382" lon="5.95386">
        <ele>529.57</ele>
        <time>2013-05-11T14:08:02Z</time>
      </trkpt>
      <trkpt lat="45.48385" lon="5.95381">
        <ele>529.58</ele>
        <time>2013-05-11T14:08:06Z</time>
      </trkpt>
      <trkpt lat="45.48391" lon="5.9538">
        <ele>529.49</ele>
        <time>2013-05-11T14:08:15Z</time>
      </trkpt>
      <trkpt lat="45.48396" lon="5.95378">
        <ele>529.42</ele>
        <time>2013-05-11T14:08:20Z</time>
      </trkpt>
      <trkpt lat="45.48399" lon="5.95374">
        <ele>529.36</ele>
        <time>2013-05-11T14:08:22Z</time>
      </trkpt>
      <trkpt lat="45.48404" lon="5.9537">
        <ele>529.31</ele>
        <time>2013-05-11T14:08:25Z</time>
      </trkpt>
      <trkpt lat="45.48408" lon="5.95363">
        <ele>529.09</ele>
        <time>2013-05-11T14:08:34Z</time>
      </trkpt>
      <trkpt lat="45.48403" lon="5.95365">
        <ele>529.08</ele>
        <time>2013-05-11T14:08:37Z</time>
      </trkpt>
      <trkpt lat="45.48404" lon="5.95358">
        <ele>529.27</ele>
        <time>2013-05-11T14:08:51Z</time>
      </trkpt>
      <trkpt lat="45.48409" lon="5.95355">
        <ele>529.32</ele>
        <time>2013-05-11T14:08:54Z</time>
      </trkpt>
      <trkpt lat="45.48413" lon="5.95348">
        <ele>529.54</ele>
        <time>2013-05-11T14:09:09Z</time>
      </trkpt>
      <trkpt lat="45.48419" lon="5.95346">
        <ele>529.65</ele>
        <time>2013-05-11T14:09:15Z</time>
      </trkpt>
      <trkpt lat="45.48423" lon="5.95337">
        <ele>529.99</ele>
        <time>2013-05-11T14:09:29Z</time>
      </trkpt>
      <trkpt lat="45.48431" lon="5.95335">
        <ele>530.01</ele>
        <time>2013-05-11T14:09:40Z</time>
      </trkpt>
      <trkpt lat="45.48436" lon="5.95335">
        <ele>530.03</ele>
        <time>2013-05-11T14:09:43Z</time>
      </trkpt>
      <trkpt lat="45.4844" lon="5.95333">
        <ele>529.91</ele>
        <time>2013-05-11T14:09:52Z</time>
      </trkpt>
      <trkpt lat="45.48441" lon="5.95322">
        <ele>529.83</ele>
        <time>2013-05-11T14:09:59Z</time>
      </trkpt>
      <trkpt lat="45.48442" lon="5.95316">
        <ele>529.78</ele>
        <time>2013-05-11T14:10:07Z</time>
      </trkpt>
      <trkpt lat="45.48447" lon="5.95317">
        <ele>529.78</ele>
        <time>2013-05-11T14:10:13Z</time>
      </trkpt>
      <trkpt lat="45.48449" lon="5.9531">
        <ele>529.9</ele>
        <time>2013-05-11T14:10:29Z</time>
      </trkpt>
      <trkpt lat="45.48455" lon="5.95307">
        <ele>529.93</ele>
        <time>2013-05-11T14:10:40Z</time>
      </trkpt>
      <trkpt lat="45.48456" lon="5.95301">
        <ele>530.17</ele>
        <time>2013-05-11T14:10:53Z</time>
      </trkpt>
      <trkpt lat="45.48454" lon="5.95295">
        <ele>530.29</ele>
        <time>2013-05-11T14:11:01Z</time>
      </trkpt>
      <trkpt lat="45.48457" lon="5.95299">
        <ele>530.4</ele>
        <time>2013-05-11T14:11:06Z</time>
      </trkpt>
      <trkpt lat="45.48462" lon="5.95295">
        <ele>530.79</ele>
        <time>2013-05-11T14:11:13Z</time>
      </trkpt>
      <trkpt lat="45.48466" lon="5.95291">
        <ele>531.21</ele>
        <time>2013-05-11T14:11:23Z</time>
      </trkpt>
      <trkpt lat="45.48474" lon="5.95295">
        <ele>531.65</ele>
        <time>2013-05-11T14:11:57Z</time>
      </trkpt>
      <trkpt lat="45.48478" lon="5.95294">
        <ele>532.11</ele>
        <time>2013-05-11T14:12:09Z</time>
      </trkpt>
      <trkpt lat="45.48482" lon="5.95299">
        <ele>532.7</ele>
        <time>2013-05-11T14:12:33Z</time>
      </trkpt>
      <trkpt lat="45.48477" lon="5.95299">
        <ele>533.13</ele>
        <time>2013-05-11T14:12:44Z</time>
      </trkpt>
      <trkpt lat="45.48476" lon="5.95305">
        <ele>533.32</ele>
        <time>2013-05-11T14:12:54Z</time>
      </trkpt>
      <trkpt lat="45.48479" lon="5.95301">
        <ele>533.56</ele>
        <time>2013-05-11T14:13:02Z</time>
      </trkpt>
      <trkpt lat="45.48484" lon="5.95303">
        <ele>533.74</ele>
        <time>2013-05-11T14:13:09Z</time>
      </trkpt>
      <trkpt lat="45.48479" lon="5.95303">
        <ele>533.94</ele>
        <time>2013-05-11T14:13:34Z</time>
      </trkpt>
      <trkpt lat="45.4847" lon="5.95298">
        <ele>534.38</ele>
        <time>2013-05-11T14:13:59Z</time>
      </trkpt>
      <trkpt lat="45.48471" lon="5.9529">
        <ele>535.03</ele>
        <time>2013-05-11T14:14:27Z</time>
      </trkpt>
      <trkpt lat="45.48469" lon="5.95298">
        <ele>535.05</ele>
        <time>2013-05-11T14:14:45Z</time>
      </trkpt>
      <trkpt lat="45.48472" lon="5.95292">
        <ele>534.99</ele>
        <time>2013-05-11T14:14:52Z</time>
      </trkpt>
      <trkpt lat="45.48467" lon="5.95301">
        <ele>535.33</ele>
        <time>2013-05-11T14:15:43Z</time>
      </trkpt>
      <trkpt lat="45.48462" lon="5.95301">
        <ele>535.23</ele>
        <time>2013-05-11T14:15:47Z</time>
      </trkpt>
      <trkpt lat="45.48458" lon="5.95298">
        <ele>535.21</ele>
        <time>2013-05-11T14:15:54Z</time>
      </trkpt>
      <trkpt lat="45.48455" lon="5.95291">
        <ele>534.91</ele>
        <time>2013-05-11T14:16:00Z</time>
      </trkpt>
      <trkpt lat="45.48455" lon="5.95283">
        <ele>534.78</ele>
        <time>2013-05-11T14:16:05Z</time>
      </trkpt>
      <trkpt lat="45.48449" lon="5.95282">
        <ele>534.78</ele>
        <time>2013-05-11T14:16:09Z</time>
      </trkpt>
      <trkpt lat="45.48444" lon="5.95281">
        <ele>535.22</ele>
        <time>2013-05-11T14:16:16Z</time>
      </trkpt>
      <trkpt lat="45.4844" lon="5.95279">
        <ele>536.44</ele>
        <time>2013-05-11T14:16:42Z</time>
      </trkpt>
      <trkpt lat="45.48441" lon="5.95272">
        <ele>536.89</ele>
        <time>2013-05-11T14:16:51Z</time>
      </trkpt>
      <trkpt lat="45.48439" lon="5.95266">
        <ele>537.1</ele>
        <time>2013-05-11T14:17:03Z</time>
      </trkpt>
      <trkpt lat="45.48437" lon="5.95259">
        <ele>537.53</ele>
        <time>2013-05-11T14:17:09Z</time>
      </trkpt>
      <trkpt lat="45.48438" lon="5.95252">
        <ele>538.35</ele>
        <time>2013-05-11T14:17:28Z</time>
      </trkpt>
      <trkpt lat="45.48438" lon="5.95246">
        <ele>538.76</ele>
        <time>2013-05-11T14:17:36Z</time>
      </trkpt>
      <trkpt lat="45.48444" lon="5.95246">
        <ele>539.02</ele>
        <time>2013-05-11T14:17:43Z</time>
      </trkpt>
      <trkpt lat="45.48449" lon="5.95241">
        <ele>539.36</ele>
        <time>2013-05-11T14:17:47Z</time>
      </trkpt>
      <trkpt lat="45.48446" lon="5.95237">
        <ele>539.74</ele>
        <time>2013-05-11T14:17:52Z</time>
      </trkpt>
      <trkpt lat="45.48448" lon="5.95231">
        <ele>540.27</ele>
        <time>2013-05-11T14:18:09Z</time>
      </trkpt>
      <trkpt lat="45.48444" lon="5.95227">
        <ele>540.32</ele>
        <time>2013-05-11T14:18:19Z</time>
      </trkpt>
      <trkpt lat="45.48445" lon="5.9522">
        <ele>540.4</ele>
        <time>2013-05-11T14:18:26Z</time>
      </trkpt>
      <trkpt lat="45.48447" lon="5.95212">
        <ele>540.45</ele>
        <time>2013-05-11T14:18:30Z</time>
      </trkpt>
      <trkpt lat="45.48442" lon="5.95208">
        <ele>540.53</ele>
        <time>2013-05-11T14:18:35Z</time>
      </trkpt>
      <trkpt lat="45.48441" lon="5.95201">
        <ele>540.83</ele>
        <time>2013-05-11T14:18:39Z</time>
      </trkpt>
      <trkpt lat="45.48442" lon="5.95194">
        <ele>541.33</ele>
        <time>2013-05-11T14:18:43Z</time>
      </trkpt>
      <trkpt lat="45.48445" lon="5.95189">
        <ele>541.86</ele>
        <time>2013-05-11T14:18:51Z</time>
      </trkpt>
      <trkpt lat="45.48448" lon="5.95183">
        <ele>542.13</ele>
        <time>2013-05-11T14:18:58Z</time>
      </trkpt>
      <trkpt lat="45.48452" lon="5.9518">
        <ele>542.14</ele>
        <time>2013-05-11T14:19:02Z</time>
      </trkpt>
      <trkpt lat="45.48457" lon="5.95177">
        <ele>542.23</ele>
        <time>2013-05-11T14:19:09Z</time>
      </trkpt>
      <trkpt lat="45.48457" lon="5.9517">
        <ele>542.28</ele>
        <time>2013-05-11T14:19:20Z</time>
      </trkpt>
      <trkpt lat="45.48455" lon="5.95164">
        <ele>542.39</ele>
        <time>2013-05-11T14:19:28Z</time>
      </trkpt>
      <trkpt lat="45.48455" lon="5.95158">
        <ele>542.57</ele>
        <time>2013-05-11T14:19:35Z</time>
      </trkpt>
      <trkpt lat="45.48458" lon="5.95153">
        <ele>542.62</ele>
        <time>2013-05-11T14:19:40Z</time>
      </trkpt>
      <trkpt lat="45.48457" lon="5.95145">
        <ele>542.87</ele>
        <time>2013-05-11T14:19:50Z</time>
      </trkpt>
      <trkpt lat="45.4846" lon="5.95139">
        <ele>543.27</ele>
        <time>2013-05-11T14:20:04Z</time>
      </trkpt>
      <trkpt lat="45.48463" lon="5.95134">
        <ele>543.08</ele>
        <time>2013-05-11T14:20:10Z</time>
      </trkpt>
      <trkpt lat="45.48462" lon="5.95128">
        <ele>543.19</ele>
        <time>2013-05-11T14:20:15Z</time>
      </trkpt>
      <trkpt lat="45.48465" lon="5.95122">
        <ele>543.49</ele>
        <time>2013-05-11T14:20:23Z</time>
      </trkpt>
      <trkpt lat="45.48464" lon="5.95116">
        <ele>543.76</ele>
        <time>2013-05-11T14:20:30Z</time>
      </trkpt>
      <trkpt lat="45.48468" lon="5.95106">
        <ele>544.06</ele>
        <time>2013-05-11T14:20:41Z</time>
      </trkpt>
      <trkpt lat="45.48469" lon="5.95099">
        <ele>544.09</ele>
        <time>2013-05-11T14:20:46Z</time>
      </trkpt>
      <trkpt lat="45.48473" lon="5.95094">
        <ele>544.49</ele>
        <time>2013-05-11T14:21:00Z</time>
      </trkpt>
      <trkpt lat="45.48474" lon="5.95087">
        <ele>544.48</ele>
        <time>2013-05-11T14:21:10Z</time>
      </trkpt>
      <trkpt lat="45.48478" lon="5.95082">
        <ele>544.45</ele>
        <time>2013-05-11T14:21:13Z</time>
      </trkpt>
      <trkpt lat="45.48482" lon="5.95077">
        <ele>544.32</ele>
        <time>2013-05-11T14:21:22Z</time>
      </trkpt>
      <trkpt lat="45.4848" lon="5.9507">
        <ele>544.68</ele>
        <time>2013-05-11T14:21:29Z</time>
      </trkpt>
      <trkpt lat="45.48485" lon="5.9506">
        <ele>544.58</ele>
        <time>2013-05-11T14:21:38Z</time>
      </trkpt>
      <trkpt lat="45.48489" lon="5.95055">
        <ele>544.28</ele>
        <time>2013-05-11T14:21:43Z</time>
      </trkpt>
      <trkpt lat="45.4849" lon="5.95047">
        <ele>544.25</ele>
        <time>2013-05-11T14:21:49Z</time>
      </trkpt>
      <trkpt lat="45.48486" lon="5.95043">
        <ele>544.61</ele>
        <time>2013-05-11T14:21:58Z</time>
      </trkpt>
      <trkpt lat="45.48488" lon="5.95035">
        <ele>544.85</ele>
        <time>2013-05-11T14:22:05Z</time>
      </trkpt>
      <trkpt lat="45.4849" lon="5.9503">
        <ele>544.94</ele>
        <time>2013-05-11T14:22:11Z</time>
      </trkpt>
      <trkpt lat="45.48491" lon="5.95023">
        <ele>545.17</ele>
        <time>2013-05-11T14:22:26Z</time>
      </trkpt>
      <trkpt lat="45.48486" lon="5.95024">
        <ele>545.4</ele>
        <time>2013-05-11T14:22:33Z</time>
      </trkpt>
      <trkpt lat="45.48487" lon="5.95017">
        <ele>546.1</ele>
        <time>2013-05-11T14:22:46Z</time>
      </trkpt>
      <trkpt lat="45.4849" lon="5.95012">
        <ele>546.34</ele>
        <time>2013-05-11T14:22:53Z</time>
      </trkpt>
      <trkpt lat="45.48495" lon="5.9501">
        <ele>545.98</ele>
        <time>2013-05-11T14:23:07Z</time>
      </trkpt>
      <trkpt lat="45.48494" lon="5.95004">
        <ele>544.73</ele>
        <time>2013-05-11T14:23:41Z</time>
      </trkpt>
      <trkpt lat="45.48491" lon="5.94999">
        <ele>544.97</ele>
        <time>2013-05-11T14:23:48Z</time>
      </trkpt>
      <trkpt lat="45.48487" lon="5.94995">
        <ele>544.66</ele>
        <time>2013-05-11T14:23:58Z</time>
      </trkpt>
      <trkpt lat="45.48488" lon="5.94987">
        <ele>544.73</ele>
        <time>2013-05-11T14:24:08Z</time>
      </trkpt>
      <trkpt lat="45.48491" lon="5.94981">
        <ele>545.54</ele>
        <time>2013-05-11T14:24:23Z</time>
      </trkpt>
      <trkpt lat="45.48488" lon="5.94975">
        <ele>545.33</ele>
        <time>2013-05-11T14:24:33Z</time>
      </trkpt>
      <trkpt lat="45.4849" lon="5.94969">
        <ele>545.22</ele>
        <time>2013-05-11T14:24:39Z</time>
      </trkpt>
      <trkpt lat="45.48486" lon="5.94965">
        <ele>545.08</ele>
        <time>2013-05-11T14:24:46Z</time>
      </trkpt>
      <trkpt lat="45.48484" lon="5.94957">
        <ele>545.02</ele>
        <time>2013-05-11T14:24:49Z</time>
      </trkpt>
      <trkpt lat="45.48482" lon="5.9495">
        <ele>545.07</ele>
        <time>2013-05-11T14:24:52Z</time>
      </trkpt>
      <trkpt lat="45.48478" lon="5.94944">
        <ele>545.18</ele>
        <time>2013-05-11T14:24:56Z</time>
      </trkpt>
      <trkpt lat="45.48475" lon="5.94939">
        <ele>545.03</ele>
        <time>2013-05-11T14:25:02Z</time>
      </trkpt>
      <trkpt lat="45.48481" lon="5.94936">
        <ele>544.82</ele>
        <time>2013-05-11T14:25:07Z</time>
      </trkpt>
      <trkpt lat="45.48485" lon="5.94932">
        <ele>544.69</ele>
        <time>2013-05-11T14:25:09Z</time>
      </trkpt>
      <trkpt lat="45.48484" lon="5.94925">
        <ele>544.29</ele>
        <time>2013-05-11T14:25:26Z</time>
      </trkpt>
      <trkpt lat="45.48481" lon="5.94918">
        <ele>544.21</ele>
        <time>2013-05-11T14:25:36Z</time>
      </trkpt>
      <trkpt lat="45.48478" lon="5.94914">
        <ele>544.41</ele>
        <time>2013-05-11T14:25:43Z</time>
      </trkpt>
      <trkpt lat="45.48478" lon="5.94904">
        <ele>544.52</ele>
        <time>2013-05-11T14:25:53Z</time>
      </trkpt>
      <trkpt lat="45.48484" lon="5.94893">
        <ele>545.23</ele>
        <time>2013-05-11T14:26:09Z</time>
      </trkpt>
      <trkpt lat="45.48486" lon="5.94887">
        <ele>545.46</ele>
        <time>2013-05-11T14:26:14Z</time>
      </trkpt>
      <trkpt lat="45.48487" lon="5.94879">
        <ele>545.43</ele>
        <time>2013-05-11T14:26:22Z</time>
      </trkpt>
      <trkpt lat="45.48492" lon="5.94878">
        <ele>545.48</ele>
        <time>2013-05-11T14:26:35Z</time>
      </trkpt>
      <trkpt lat="45.48487" lon="5.94883">
        <ele>545.42</ele>
        <time>2013-05-11T14:26:40Z</time>
      </trkpt>
      <trkpt lat="45.48481" lon="5.94889">
        <ele>545.37</ele>
        <time>2013-05-11T14:26:44Z</time>
      </trkpt>
      <trkpt lat="45.48485" lon="5.94884">
        <ele>545.3</ele>
        <time>2013-05-11T14:26:49Z</time>
      </trkpt>
      <trkpt lat="45.48482" lon="5.94891">
        <ele>545.22</ele>
        <time>2013-05-11T14:27:00Z</time>
      </trkpt>
      <trkpt lat="45.48485" lon="5.94885">
        <ele>545.25</ele>
        <time>2013-05-11T14:27:12Z</time>
      </trkpt>
      <trkpt lat="45.48489" lon="5.94878">
        <ele>545.24</ele>
        <time>2013-05-11T14:27:20Z</time>
      </trkpt>
      <trkpt lat="45.4849" lon="5.94872">
        <ele>545.35</ele>
        <time>2013-05-11T14:27:33Z</time>
      </trkpt>
      <trkpt lat="45.48485" lon="5.94871">
        <ele>545.26</ele>
        <time>2013-05-11T14:27:39Z</time>
      </trkpt>
      <trkpt lat="45.48487" lon="5.94864">
        <ele>545.1</ele>
        <time>2013-05-11T14:28:01Z</time>
      </trkpt>
      <trkpt lat="45.4849" lon="5.94854">
        <ele>544.66</ele>
        <time>2013-05-11T14:28:13Z</time>
      </trkpt>
      <trkpt lat="45.48493" lon="5.94849">
        <ele>544.32</ele>
        <time>2013-05-11T14:28:17Z</time>
      </trkpt>
      <trkpt lat="45.48496" lon="5.94842">
        <ele>544.46</ele>
        <time>2013-05-11T14:28:27Z</time>
      </trkpt>
      <trkpt lat="45.48492" lon="5.94846">
        <ele>542.36</ele>
        <time>2013-05-11T14:28:43Z</time>
      </trkpt>
      <trkpt lat="45.48492" lon="5.94838">
        <ele>542.07</ele>
        <time>2013-05-11T14:29:03Z</time>
      </trkpt>
      <trkpt lat="45.48493" lon="5.9483">
        <ele>542.05</ele>
        <time>2013-05-11T14:29:11Z</time>
      </trkpt>
      <trkpt lat="45.48496" lon="5.94824">
        <ele>542.24</ele>
        <time>2013-05-11T14:29:36Z</time>
      </trkpt>
      <trkpt lat="45.48498" lon="5.94818">
        <ele>542.32</ele>
        <time>2013-05-11T14:29:39Z</time>
      </trkpt>
      <trkpt lat="45.48495" lon="5.94823">
        <ele>542.08</ele>
        <time>2013-05-11T14:29:48Z</time>
      </trkpt>
      <trkpt lat="45.48494" lon="5.94816">
        <ele>541.98</ele>
        <time>2013-05-11T14:29:57Z</time>
      </trkpt>
      <trkpt lat="45.48493" lon="5.94809">
        <ele>541.82</ele>
        <time>2013-05-11T14:30:06Z</time>
      </trkpt>
      <trkpt lat="45.48495" lon="5.94803">
        <ele>541.3</ele>
        <time>2013-05-11T14:30:17Z</time>
      </trkpt>
      <trkpt lat="45.48494" lon="5.94796">
        <ele>540.92</ele>
        <time>2013-05-11T14:30:42Z</time>
      </trkpt>
      <trkpt lat="45.48489" lon="5.94792">
        <ele>541.05</ele>
        <time>2013-05-11T14:30:47Z</time>
      </trkpt>
      <trkpt lat="45.48491" lon="5.94786">
        <ele>541.95</ele>
        <time>2013-05-11T14:31:10Z</time>
      </trkpt>
      <trkpt lat="45.48487" lon="5.94779">
        <ele>542.37</ele>
        <time>2013-05-11T14:31:17Z</time>
      </trkpt>
      <trkpt lat="45.48481" lon="5.94774">
        <ele>542.54</ele>
        <time>2013-05-11T14:31:27Z</time>
      </trkpt>
      <trkpt lat="45.48477" lon="5.94769">
        <ele>542.41</ele>
        <time>2013-05-11T14:31:32Z</time>
      </trkpt>
      <trkpt lat="45.48472" lon="5.94761">
        <ele>542.28</ele>
        <time>2013-05-11T14:31:38Z</time>
      </trkpt>
      <trkpt lat="45.4847" lon="5.94756">
        <ele>542.1</ele>
        <time>2013-05-11T14:31:44Z</time>
      </trkpt>
      <trkpt lat="45.48474" lon="5.94751">
        <ele>542.06</ele>
        <time>2013-05-11T14:31:48Z</time>
      </trkpt>
      <trkpt lat="45.48479" lon="5.94747">
        <ele>542.07</ele>
        <time>2013-05-11T14:31:52Z</time>
      </trkpt>
      <trkpt lat="45.48476" lon="5.9474">
        <ele>541.99</ele>
        <time>2013-05-11T14:31:56Z</time>
      </trkpt>
      <trkpt lat="45.4847" lon="5.94742">
        <ele>541.79</ele>
        <time>2013-05-11T14:32:00Z</time>
      </trkpt>
      <trkpt lat="45.48466" lon="5.94743">
        <ele>541.84</ele>
        <time>2013-05-11T14:32:03Z</time>
      </trkpt>
      <trkpt lat="45.4846" lon="5.94743">
        <ele>543.22</ele>
        <time>2013-05-11T14:32:32Z</time>
      </trkpt>
      <trkpt lat="45.48456" lon="5.94744">
        <ele>543.33</ele>
        <time>2013-05-11T14:32:39Z</time>
      </trkpt>
      <trkpt lat="45.48453" lon="5.94736">
        <ele>543.32</ele>
        <time>2013-05-11T14:32:45Z</time>
      </trkpt>
      <trkpt lat="45.48447" lon="5.94738">
        <ele>543.39</ele>
        <time>2013-05-11T14:32:47Z</time>
      </trkpt>
      <trkpt lat="45.48442" lon="5.9474">
        <ele>543.46</ele>
        <time>2013-05-11T14:32:50Z</time>
      </trkpt>
      <trkpt lat="45.48439" lon="5.94748">
        <ele>543.51</ele>
        <time>2013-05-11T14:32:52Z</time>
      </trkpt>
      <trkpt lat="45.48434" lon="5.94755">
        <ele>543.75</ele>
        <time>2013-05-11T14:32:56Z</time>
      </trkpt>
      <trkpt lat="45.48429" lon="5.94758">
        <ele>544.01</ele>
        <time>2013-05-11T14:32:59Z</time>
      </trkpt>
      <trkpt lat="45.48424" lon="5.94756">
        <ele>544.51</ele>
        <time>2013-05-11T14:33:04Z</time>
      </trkpt>
      <trkpt lat="45.48421" lon="5.9475">
        <ele>545.11</ele>
        <time>2013-05-11T14:33:09Z</time>
      </trkpt>
      <trkpt lat="45.48418" lon="5.94755">
        <ele>546.07</ele>
        <time>2013-05-11T14:33:16Z</time>
      </trkpt>
      <trkpt lat="45.48414" lon="5.94756">
        <ele>546.68</ele>
        <time>2013-05-11T14:33:23Z</time>
      </trkpt>
      <trkpt lat="45.48415" lon="5.9475">
        <ele>547.3</ele>
        <time>2013-05-11T14:33:32Z</time>
      </trkpt>
      <trkpt lat="45.48409" lon="5.94742">
        <ele>547.67</ele>
        <time>2013-05-11T14:33:42Z</time>
      </trkpt>
      <trkpt lat="45.48404" lon="5.94745">
        <ele>547.75</ele>
        <time>2013-05-11T14:33:47Z</time>
      </trkpt>
      <trkpt lat="45.48407" lon="5.94751">
        <ele>547.86</ele>
        <time>2013-05-11T14:33:56Z</time>
      </trkpt>
      <trkpt lat="45.48401" lon="5.94751">
        <ele>548.1</ele>
        <time>2013-05-11T14:34:09Z</time>
      </trkpt>
      <trkpt lat="45.48397" lon="5.94755">
        <ele>548.47</ele>
        <time>2013-05-11T14:34:17Z</time>
      </trkpt>
      <trkpt lat="45.48393" lon="5.9476">
        <ele>548.67</ele>
        <time>2013-05-11T14:34:22Z</time>
      </trkpt>
      <trkpt lat="45.48398" lon="5.94761">
        <ele>548.76</ele>
        <time>2013-05-11T14:34:29Z</time>
      </trkpt>
      <trkpt lat="45.484" lon="5.94754">
        <ele>548.77</ele>
        <time>2013-05-11T14:34:34Z</time>
      </trkpt>
      <trkpt lat="45.48396" lon="5.94762">
        <ele>549.37</ele>
        <time>2013-05-11T14:34:44Z</time>
      </trkpt>
      <trkpt lat="45.48391" lon="5.94759">
        <ele>549.58</ele>
        <time>2013-05-11T14:35:01Z</time>
      </trkpt>
      <trkpt lat="45.48388" lon="5.94764">
        <ele>549.7</ele>
        <time>2013-05-11T14:35:10Z</time>
      </trkpt>
      <trkpt lat="45.4838" lon="5.94765">
        <ele>550.3</ele>
        <time>2013-05-11T14:35:24Z</time>
      </trkpt>
      <trkpt lat="45.48377" lon="5.94773">
        <ele>550.64</ele>
        <time>2013-05-11T14:35:29Z</time>
      </trkpt>
      <trkpt lat="45.48377" lon="5.94779">
        <ele>550.92</ele>
        <time>2013-05-11T14:35:32Z</time>
      </trkpt>
      <trkpt lat="45.48376" lon="5.94786">
        <ele>551.79</ele>
        <time>2013-05-11T14:35:50Z</time>
      </trkpt>
      <trkpt lat="45.48371" lon="5.94793">
        <ele>551.93</ele>
        <time>2013-05-11T14:35:53Z</time>
      </trkpt>
      <trkpt lat="45.48369" lon="5.948">
        <ele>551.91</ele>
        <time>2013-05-11T14:35:56Z</time>
      </trkpt>
      <trkpt lat="45.48365" lon="5.94803">
        <ele>551.78</ele>
        <time>2013-05-11T14:36:03Z</time>
      </trkpt>
      <trkpt lat="45.48364" lon="5.94811">
        <ele>552.1</ele>
        <time>2013-05-11T14:36:07Z</time>
      </trkpt>
      <trkpt lat="45.4836" lon="5.94815">
        <ele>552.44</ele>
        <time>2013-05-11T14:36:12Z</time>
      </trkpt>
      <trkpt lat="45.48358" lon="5.94822">
        <ele>552.75</ele>
        <time>2013-05-11T14:36:15Z</time>
      </trkpt>
      <trkpt lat="45.48355" lon="5.94828">
        <ele>553</ele>
        <time>2013-05-11T14:36:20Z</time>
      </trkpt>
      <trkpt lat="45.48353" lon="5.94834">
        <ele>553.23</ele>
        <time>2013-05-11T14:36:24Z</time>
      </trkpt>
      <trkpt lat="45.48349" lon="5.9484">
        <ele>553.61</ele>
        <time>2013-05-11T14:36:32Z</time>
      </trkpt>
      <trkpt lat="45.48346" lon="5.94845">
        <ele>553.49</ele>
        <time>2013-05-11T14:36:41Z</time>
      </trkpt>
      <trkpt lat="45.48343" lon="5.94849">
        <ele>553.14</ele>
        <time>2013-05-11T14:36:48Z</time>
      </trkpt>
      <trkpt lat="45.48347" lon="5.94853">
        <ele>553.16</ele>
        <time>2013-05-11T14:36:55Z</time>
      </trkpt>
      <trkpt lat="45.48344" lon="5.94861">
        <ele>553.24</ele>
        <time>2013-05-11T14:37:03Z</time>
      </trkpt>
      <trkpt lat="45.4834" lon="5.94866">
        <ele>553.29</ele>
        <time>2013-05-11T14:37:06Z</time>
      </trkpt>
      <trkpt lat="45.48339" lon="5.94876">
        <ele>553.28</ele>
        <time>2013-05-11T14:37:08Z</time>
      </trkpt>
      <trkpt lat="45.48338" lon="5.94882">
        <ele>553.15</ele>
        <time>2013-05-11T14:37:12Z</time>
      </trkpt>
      <trkpt lat="45.48339" lon="5.9489">
        <ele>552.99</ele>
        <time>2013-05-11T14:37:23Z</time>
      </trkpt>
      <trkpt lat="45.48338" lon="5.94898">
        <ele>552.94</ele>
        <time>2013-05-11T14:37:26Z</time>
      </trkpt>
      <trkpt lat="45.48336" lon="5.94905">
        <ele>552.95</ele>
        <time>2013-05-11T14:37:31Z</time>
      </trkpt>
      <trkpt lat="45.48332" lon="5.94912">
        <ele>552.97</ele>
        <time>2013-05-11T14:37:34Z</time>
      </trkpt>
      <trkpt lat="45.48328" lon="5.94914">
        <ele>552.95</ele>
        <time>2013-05-11T14:37:40Z</time>
      </trkpt>
      <trkpt lat="45.48323" lon="5.94917">
        <ele>552.25</ele>
        <time>2013-05-11T14:37:57Z</time>
      </trkpt>
      <trkpt lat="45.48319" lon="5.94917">
        <ele>551.94</ele>
        <time>2013-05-11T14:38:12Z</time>
      </trkpt>
      <trkpt lat="45.48314" lon="5.94922">
        <ele>551.82</ele>
        <time>2013-05-11T14:38:17Z</time>
      </trkpt>
      <trkpt lat="45.4831" lon="5.94926">
        <ele>551.71</ele>
        <time>2013-05-11T14:38:23Z</time>
      </trkpt>
      <trkpt lat="45.48303" lon="5.9493">
        <ele>551.98</ele>
        <time>2013-05-11T14:38:35Z</time>
      </trkpt>
      <trkpt lat="45.48298" lon="5.94929">
        <ele>551.62</ele>
        <time>2013-05-11T14:38:49Z</time>
      </trkpt>
      <trkpt lat="45.48293" lon="5.94935">
        <ele>550.88</ele>
        <time>2013-05-11T14:38:58Z</time>
      </trkpt>
      <trkpt lat="45.48288" lon="5.94936">
        <ele>551.02</ele>
        <time>2013-05-11T14:39:21Z</time>
      </trkpt>
      <trkpt lat="45.48284" lon="5.94937">
        <ele>551.1</ele>
        <time>2013-05-11T14:39:26Z</time>
      </trkpt>
      <trkpt lat="45.48281" lon="5.94943">
        <ele>551.25</ele>
        <time>2013-05-11T14:39:30Z</time>
      </trkpt>
      <trkpt lat="45.48283" lon="5.94949">
        <ele>551.59</ele>
        <time>2013-05-11T14:39:38Z</time>
      </trkpt>
      <trkpt lat="45.48284" lon="5.94956">
        <ele>551.79</ele>
        <time>2013-05-11T14:39:43Z</time>
      </trkpt>
      <trkpt lat="45.48285" lon="5.94963">
        <ele>552.06</ele>
        <time>2013-05-11T14:39:59Z</time>
      </trkpt>
      <trkpt lat="45.4828" lon="5.94966">
        <ele>552.07</ele>
        <time>2013-05-11T14:40:03Z</time>
      </trkpt>
      <trkpt lat="45.48276" lon="5.94965">
        <ele>552.26</ele>
        <time>2013-05-11T14:40:13Z</time>
      </trkpt>
      <trkpt lat="45.48282" lon="5.9497">
        <ele>553.39</ele>
        <time>2013-05-11T14:40:32Z</time>
      </trkpt>
      <trkpt lat="45.48279" lon="5.94977">
        <ele>553.71</ele>
        <time>2013-05-11T14:40:34Z</time>
      </trkpt>
      <trkpt lat="45.48278" lon="5.94985">
        <ele>553.81</ele>
        <time>2013-05-11T14:40:37Z</time>
      </trkpt>
      <trkpt lat="45.48276" lon="5.94991">
        <ele>553.59</ele>
        <time>2013-05-11T14:40:42Z</time>
      </trkpt>
      <trkpt lat="45.48272" lon="5.94998">
        <ele>553.39</ele>
        <time>2013-05-11T14:40:45Z</time>
      </trkpt>
      <trkpt lat="45.4827" lon="5.95005">
        <ele>553.24</ele>
        <time>2013-05-11T14:40:58Z</time>
      </trkpt>
      <trkpt lat="45.4827" lon="5.95013">
        <ele>553.81</ele>
        <time>2013-05-11T14:41:08Z</time>
      </trkpt>
      <trkpt lat="45.48269" lon="5.9502">
        <ele>553.93</ele>
        <time>2013-05-11T14:41:11Z</time>
      </trkpt>
      <trkpt lat="45.48265" lon="5.95025">
        <ele>554.21</ele>
        <time>2013-05-11T14:41:17Z</time>
      </trkpt>
      <trkpt lat="45.48261" lon="5.95032">
        <ele>554.44</ele>
        <time>2013-05-11T14:41:22Z</time>
      </trkpt>
      <trkpt lat="45.48257" lon="5.95035">
        <ele>554.79</ele>
        <time>2013-05-11T14:41:28Z</time>
      </trkpt>
      <trkpt lat="45.48252" lon="5.9504">
        <ele>555.2</ele>
        <time>2013-05-11T14:41:33Z</time>
      </trkpt>
      <trkpt lat="45.48247" lon="5.95045">
        <ele>555.52</ele>
        <time>2013-05-11T14:41:36Z</time>
      </trkpt>
      <trkpt lat="45.48244" lon="5.95051">
        <ele>555.99</ele>
        <time>2013-05-11T14:41:41Z</time>
      </trkpt>
      <trkpt lat="45.48239" lon="5.95052">
        <ele>556.61</ele>
        <time>2013-05-11T14:41:46Z</time>
      </trkpt>
      <trkpt lat="45.48237" lon="5.95057">
        <ele>557.15</ele>
        <time>2013-05-11T14:41:51Z</time>
      </trkpt>
      <trkpt lat="45.48235" lon="5.95064">
        <ele>557.98</ele>
        <time>2013-05-11T14:41:59Z</time>
      </trkpt>
      <trkpt lat="45.48232" lon="5.95072">
        <ele>558.68</ele>
        <time>2013-05-11T14:42:08Z</time>
      </trkpt>
      <trkpt lat="45.48231" lon="5.95079">
        <ele>558.9</ele>
        <time>2013-05-11T14:42:17Z</time>
      </trkpt>
      <trkpt lat="45.48231" lon="5.9509">
        <ele>558.81</ele>
        <time>2013-05-11T14:42:24Z</time>
      </trkpt>
      <trkpt lat="45.4823" lon="5.95098">
        <ele>558.45</ele>
        <time>2013-05-11T14:42:31Z</time>
      </trkpt>
      <trkpt lat="45.48228" lon="5.95103">
        <ele>557.95</ele>
        <time>2013-05-11T14:42:52Z</time>
      </trkpt>
      <trkpt lat="45.48224" lon="5.95108">
        <ele>557.3</ele>
        <time>2013-05-11T14:43:01Z</time>
      </trkpt>
      <trkpt lat="45.4822" lon="5.95111">
        <ele>557.3</ele>
        <time>2013-05-11T14:43:04Z</time>
      </trkpt>
      <trkpt lat="45.48216" lon="5.95114">
        <ele>557.47</ele>
        <time>2013-05-11T14:43:07Z</time>
      </trkpt>
      <trkpt lat="45.48211" lon="5.95116">
        <ele>557.85</ele>
        <time>2013-05-11T14:43:12Z</time>
      </trkpt>
      <trkpt lat="45.48206" lon="5.95119">
        <ele>558.41</ele>
        <time>2013-05-11T14:43:16Z</time>
      </trkpt>
      <trkpt lat="45.48201" lon="5.95123">
        <ele>558.57</ele>
        <time>2013-05-11T14:43:18Z</time>
      </trkpt>
      <trkpt lat="45.48197" lon="5.95127">
        <ele>558.75</ele>
        <time>2013-05-11T14:43:20Z</time>
      </trkpt>
      <trkpt lat="45.48193" lon="5.95132">
        <ele>559.05</ele>
        <time>2013-05-11T14:43:23Z</time>
      </trkpt>
      <trkpt lat="45.48202" lon="5.95126">
        <ele>559.13</ele>
        <time>2013-05-11T14:43:32Z</time>
      </trkpt>
      <trkpt lat="45.48209" lon="5.9512">
        <ele>559.22</ele>
        <time>2013-05-11T14:43:34Z</time>
      </trkpt>
      <trkpt lat="45.48213" lon="5.95123">
        <ele>559.44</ele>
        <time>2013-05-11T14:43:38Z</time>
      </trkpt>
      <trkpt lat="45.48207" lon="5.95132">
        <ele>559.6</ele>
        <time>2013-05-11T14:43:41Z</time>
      </trkpt>
      <trkpt lat="45.48202" lon="5.95136">
        <ele>559.9</ele>
        <time>2013-05-11T14:43:44Z</time>
      </trkpt>
      <trkpt lat="45.48208" lon="5.95131">
        <ele>560.2</ele>
        <time>2013-05-11T14:43:48Z</time>
      </trkpt>
      <trkpt lat="45.48205" lon="5.95138">
        <ele>561.96</ele>
        <time>2013-05-11T14:43:58Z</time>
      </trkpt>
      <trkpt lat="45.48205" lon="5.95145">
        <ele>563.72</ele>
        <time>2013-05-11T14:44:05Z</time>
      </trkpt>
      <trkpt lat="45.48205" lon="5.95152">
        <ele>564.43</ele>
        <time>2013-05-11T14:44:14Z</time>
      </trkpt>
      <trkpt lat="45.48202" lon="5.9516">
        <ele>564.98</ele>
        <time>2013-05-11T14:45:00Z</time>
      </trkpt>
      <trkpt lat="45.48201" lon="5.95166">
        <ele>565.04</ele>
        <time>2013-05-11T14:45:07Z</time>
      </trkpt>
      <trkpt lat="45.48199" lon="5.95172">
        <ele>565.06</ele>
        <time>2013-05-11T14:45:11Z</time>
      </trkpt>
      <trkpt lat="45.48204" lon="5.95175">
        <ele>564.96</ele>
        <time>2013-05-11T14:45:24Z</time>
      </trkpt>
      <trkpt lat="45.48198" lon="5.95183">
        <ele>564.76</ele>
        <time>2013-05-11T14:45:31Z</time>
      </trkpt>
      <trkpt lat="45.48198" lon="5.9519">
        <ele>564.58</ele>
        <time>2013-05-11T14:45:41Z</time>
      </trkpt>
      <trkpt lat="45.48201" lon="5.95199">
        <ele>564.73</ele>
        <time>2013-05-11T14:45:55Z</time>
      </trkpt>
      <trkpt lat="45.48202" lon="5.95206">
        <ele>565.11</ele>
        <time>2013-05-11T14:46:06Z</time>
      </trkpt>
      <trkpt lat="45.48198" lon="5.95214">
        <ele>565.33</ele>
        <time>2013-05-11T14:46:14Z</time>
      </trkpt>
      <trkpt lat="45.48193" lon="5.95214">
        <ele>565.41</ele>
        <time>2013-05-11T14:46:21Z</time>
      </trkpt>
      <trkpt lat="45.48195" lon="5.95221">
        <ele>565.62</ele>
        <time>2013-05-11T14:46:31Z</time>
      </trkpt>
      <trkpt lat="45.48193" lon="5.95228">
        <ele>565.99</ele>
        <time>2013-05-11T14:46:43Z</time>
      </trkpt>
      <trkpt lat="45.48189" lon="5.95232">
        <ele>566.15</ele>
        <time>2013-05-11T14:46:51Z</time>
      </trkpt>
      <trkpt lat="45.48184" lon="5.95234">
        <ele>566.33</ele>
        <time>2013-05-11T14:47:00Z</time>
      </trkpt>
      <trkpt lat="45.48184" lon="5.95242">
        <ele>566.59</ele>
        <time>2013-05-11T14:47:05Z</time>
      </trkpt>
      <trkpt lat="45.48179" lon="5.95241">
        <ele>566.77</ele>
        <time>2013-05-11T14:47:10Z</time>
      </trkpt>
      <trkpt lat="45.48177" lon="5.95248">
        <ele>566.95</ele>
        <time>2013-05-11T14:47:19Z</time>
      </trkpt>
      <trkpt lat="45.48173" lon="5.95244">
        <ele>567.02</ele>
        <time>2013-05-11T14:47:39Z</time>
      </trkpt>
      <trkpt lat="45.48167" lon="5.95242">
        <ele>567.13</ele>
        <time>2013-05-11T14:47:46Z</time>
      </trkpt>
      <trkpt lat="45.48172" lon="5.95234">
        <ele>567.33</ele>
        <time>2013-05-11T14:47:55Z</time>
      </trkpt>
      <trkpt lat="45.48177" lon="5.95229">
        <ele>567.85</ele>
        <time>2013-05-11T14:48:27Z</time>
      </trkpt>
      <trkpt lat="45.48174" lon="5.95224">
        <ele>569.98</ele>
        <time>2013-05-11T14:48:43Z</time>
      </trkpt>
      <trkpt lat="45.48178" lon="5.95218">
        <ele>571.47</ele>
        <time>2013-05-11T14:49:13Z</time>
      </trkpt>
      <trkpt lat="45.4818" lon="5.95225">
        <ele>572.14</ele>
        <time>2013-05-11T14:49:22Z</time>
      </trkpt>
      <trkpt lat="45.48182" lon="5.95231">
        <ele>572.78</ele>
        <time>2013-05-11T14:49:30Z</time>
      </trkpt>
      <trkpt lat="45.4818" lon="5.9524">
        <ele>573.55</ele>
        <time>2013-05-11T14:49:42Z</time>
      </trkpt>
      <trkpt lat="45.48178" lon="5.95245">
        <ele>574.19</ele>
        <time>2013-05-11T14:49:49Z</time>
      </trkpt>
      <trkpt lat="45.48172" lon="5.95244">
        <ele>575.2</ele>
        <time>2013-05-11T14:50:13Z</time>
      </trkpt>
      <trkpt lat="45.48168" lon="5.95248">
        <ele>577.44</ele>
        <time>2013-05-11T14:50:38Z</time>
      </trkpt>
      <trkpt lat="45.48168" lon="5.95255">
        <ele>577.87</ele>
        <time>2013-05-11T14:50:44Z</time>
      </trkpt>
      <trkpt lat="45.48164" lon="5.95259">
        <ele>578.71</ele>
        <time>2013-05-11T14:51:10Z</time>
      </trkpt>
      <trkpt lat="45.48159" lon="5.95269">
        <ele>578.56</ele>
        <time>2013-05-11T14:51:22Z</time>
      </trkpt>
      <trkpt lat="45.48156" lon="5.95276">
        <ele>578.46</ele>
        <time>2013-05-11T14:51:26Z</time>
      </trkpt>
      <trkpt lat="45.48153" lon="5.95281">
        <ele>578.29</ele>
        <time>2013-05-11T14:51:31Z</time>
      </trkpt>
      <trkpt lat="45.48151" lon="5.95287">
        <ele>578.42</ele>
        <time>2013-05-11T14:51:38Z</time>
      </trkpt>
      <trkpt lat="45.48146" lon="5.95286">
        <ele>578.5</ele>
        <time>2013-05-11T14:51:44Z</time>
      </trkpt>
      <trkpt lat="45.48141" lon="5.95285">
        <ele>578.65</ele>
        <time>2013-05-11T14:51:46Z</time>
      </trkpt>
      <trkpt lat="45.48136" lon="5.95287">
        <ele>578.7</ele>
        <time>2013-05-11T14:51:53Z</time>
      </trkpt>
      <trkpt lat="45.48132" lon="5.95291">
        <ele>578.7</ele>
        <time>2013-05-11T14:51:58Z</time>
      </trkpt>
      <trkpt lat="45.48127" lon="5.95292">
        <ele>578.62</ele>
        <time>2013-05-11T14:52:10Z</time>
      </trkpt>
      <trkpt lat="45.48122" lon="5.95294">
        <ele>578.55</ele>
        <time>2013-05-11T14:52:13Z</time>
      </trkpt>
      <trkpt lat="45.48118" lon="5.95297">
        <ele>578.28</ele>
        <time>2013-05-11T14:52:18Z</time>
      </trkpt>
      <trkpt lat="45.48113" lon="5.95301">
        <ele>577.92</ele>
        <time>2013-05-11T14:52:23Z</time>
      </trkpt>
      <trkpt lat="45.48115" lon="5.95294">
        <ele>577.1</ele>
        <time>2013-05-11T14:52:33Z</time>
      </trkpt>
      <trkpt lat="45.48112" lon="5.9529">
        <ele>576.37</ele>
        <time>2013-05-11T14:52:44Z</time>
      </trkpt>
      <trkpt lat="45.48107" lon="5.95286">
        <ele>576.22</ele>
        <time>2013-05-11T14:52:53Z</time>
      </trkpt>
      <trkpt lat="45.48106" lon="5.95293">
        <ele>576.2</ele>
        <time>2013-05-11T14:52:57Z</time>
      </trkpt>
      <trkpt lat="45.48104" lon="5.95299">
        <ele>576.15</ele>
        <time>2013-05-11T14:53:12Z</time>
      </trkpt>
      <trkpt lat="45.48112" lon="5.95294">
        <ele>576</ele>
        <time>2013-05-11T14:53:29Z</time>
      </trkpt>
      <trkpt lat="45.48108" lon="5.95297">
        <ele>575.96</ele>
        <time>2013-05-11T14:53:33Z</time>
      </trkpt>
      <trkpt lat="45.48106" lon="5.9529">
        <ele>576.02</ele>
        <time>2013-05-11T14:53:37Z</time>
      </trkpt>
      <trkpt lat="45.4811" lon="5.95294">
        <ele>576.17</ele>
        <time>2013-05-11T14:53:44Z</time>
      </trkpt>
      <trkpt lat="45.48108" lon="5.95301">
        <ele>576.25</ele>
        <time>2013-05-11T14:53:51Z</time>
      </trkpt>
      <trkpt lat="45.48104" lon="5.95296">
        <ele>576.29</ele>
        <time>2013-05-11T14:54:11Z</time>
      </trkpt>
      <trkpt lat="45.48103" lon="5.95303">
        <ele>576.21</ele>
        <time>2013-05-11T14:54:17Z</time>
      </trkpt>
      <trkpt lat="45.48108" lon="5.95303">
        <ele>575.99</ele>
        <time>2013-05-11T14:54:34Z</time>
      </trkpt>
      <trkpt lat="45.4811" lon="5.95296">
        <ele>575.89</ele>
        <time>2013-05-11T14:54:41Z</time>
      </trkpt>
      <trkpt lat="45.48106" lon="5.95301">
        <ele>575.89</ele>
        <time>2013-05-11T14:54:43Z</time>
      </trkpt>
      <trkpt lat="45.48105" lon="5.95295">
        <ele>575.78</ele>
        <time>2013-05-11T14:54:54Z</time>
      </trkpt>
      <trkpt lat="45.48104" lon="5.95302">
        <ele>575.7</ele>
        <time>2013-05-11T14:55:02Z</time>
      </trkpt>
      <trkpt lat="45.481" lon="5.95307">
        <ele>575.68</ele>
        <time>2013-05-11T14:55:07Z</time>
      </trkpt>
      <trkpt lat="45.48097" lon="5.95312">
        <ele>575.52</ele>
        <time>2013-05-11T14:55:16Z</time>
      </trkpt>
      <trkpt lat="45.48092" lon="5.95319">
        <ele>575.32</ele>
        <time>2013-05-11T14:55:27Z</time>
      </trkpt>
      <trkpt lat="45.48089" lon="5.95326">
        <ele>575.28</ele>
        <time>2013-05-11T14:55:29Z</time>
      </trkpt>
      <trkpt lat="45.48084" lon="5.9533">
        <ele>575.23</ele>
        <time>2013-05-11T14:55:31Z</time>
      </trkpt>
      <trkpt lat="45.4808" lon="5.95335">
        <ele>575.19</ele>
        <time>2013-05-11T14:55:32Z</time>
      </trkpt>
      <trkpt lat="45.48075" lon="5.95336">
        <ele>574.96</ele>
        <time>2013-05-11T14:55:38Z</time>
      </trkpt>
      <trkpt lat="45.48074" lon="5.95345">
        <ele>574.59</ele>
        <time>2013-05-11T14:55:47Z</time>
      </trkpt>
      <trkpt lat="45.48066" lon="5.9535">
        <ele>574.42</ele>
        <time>2013-05-11T14:55:50Z</time>
      </trkpt>
      <trkpt lat="45.4806" lon="5.95355">
        <ele>574.04</ele>
        <time>2013-05-11T14:55:56Z</time>
      </trkpt>
      <trkpt lat="45.48057" lon="5.95348">
        <ele>573.61</ele>
        <time>2013-05-11T14:56:04Z</time>
      </trkpt>
      <trkpt lat="45.48054" lon="5.95352">
        <ele>573.25</ele>
        <time>2013-05-11T14:56:11Z</time>
      </trkpt>
      <trkpt lat="45.48051" lon="5.95359">
        <ele>573.13</ele>
        <time>2013-05-11T14:56:14Z</time>
      </trkpt>
      <trkpt lat="45.48046" lon="5.95363">
        <ele>572.98</ele>
        <time>2013-05-11T14:56:18Z</time>
      </trkpt>
      <trkpt lat="45.48042" lon="5.95365">
        <ele>572.91</ele>
        <time>2013-05-11T14:56:22Z</time>
      </trkpt>
      <trkpt lat="45.48038" lon="5.95368">
        <ele>572.75</ele>
        <time>2013-05-11T14:56:29Z</time>
      </trkpt>
      <trkpt lat="45.48034" lon="5.95371">
        <ele>572.72</ele>
        <time>2013-05-11T14:56:31Z</time>
      </trkpt>
      <trkpt lat="45.48027" lon="5.95377">
        <ele>572.66</ele>
        <time>2013-05-11T14:56:33Z</time>
      </trkpt>
      <trkpt lat="45.48022" lon="5.95379">
        <ele>572.53</ele>
        <time>2013-05-11T14:56:37Z</time>
      </trkpt>
      <trkpt lat="45.48025" lon="5.95372">
        <ele>572</ele>
        <time>2013-05-11T14:56:51Z</time>
      </trkpt>
      <trkpt lat="45.48027" lon="5.95379">
        <ele>571.6</ele>
        <time>2013-05-11T14:56:57Z</time>
      </trkpt>
      <trkpt lat="45.48034" lon="5.9539">
        <ele>570.98</ele>
        <time>2013-05-11T14:57:14Z</time>
      </trkpt>
      <trkpt lat="45.48039" lon="5.95392">
        <ele>570.76</ele>
        <time>2013-05-11T14:57:17Z</time>
      </trkpt>
      <trkpt lat="45.48044" lon="5.95391">
        <ele>570.64</ele>
        <time>2013-05-11T14:57:19Z</time>
      </trkpt>
      <trkpt lat="45.4804" lon="5.95395">
        <ele>570.55</ele>
        <time>2013-05-11T14:57:20Z</time>
      </trkpt>
      <trkpt lat="45.48046" lon="5.95395">
        <ele>569.93</ele>
        <time>2013-05-11T14:57:31Z</time>
      </trkpt>
      <trkpt lat="45.48043" lon="5.95405">
        <ele>569.84</ele>
        <time>2013-05-11T14:57:33Z</time>
      </trkpt>
      <trkpt lat="45.48039" lon="5.95408">
        <ele>569.72</ele>
        <time>2013-05-11T14:57:38Z</time>
      </trkpt>
      <trkpt lat="45.48044" lon="5.95407">
        <ele>569.64</ele>
        <time>2013-05-11T14:57:46Z</time>
      </trkpt>
      <trkpt lat="45.48045" lon="5.954">
        <ele>569.53</ele>
        <time>2013-05-11T14:58:02Z</time>
      </trkpt>
      <trkpt lat="45.48042" lon="5.95408">
        <ele>569.63</ele>
        <time>2013-05-11T14:58:06Z</time>
      </trkpt>
      <trkpt lat="45.48044" lon="5.95415">
        <ele>569.47</ele>
        <time>2013-05-11T14:58:36Z</time>
      </trkpt>
      <trkpt lat="45.48045" lon="5.95422">
        <ele>569.19</ele>
        <time>2013-05-11T14:58:39Z</time>
      </trkpt>
      <trkpt lat="45.48047" lon="5.9543">
        <ele>568.92</ele>
        <time>2013-05-11T14:58:43Z</time>
      </trkpt>
      <trkpt lat="45.48042" lon="5.95434">
        <ele>568.81</ele>
        <time>2013-05-11T14:58:45Z</time>
      </trkpt>
      <trkpt lat="45.48037" lon="5.95439">
        <ele>568.7</ele>
        <time>2013-05-11T14:58:52Z</time>
      </trkpt>
      <trkpt lat="45.48036" lon="5.95446">
        <ele>568.69</ele>
        <time>2013-05-11T14:58:55Z</time>
      </trkpt>
      <trkpt lat="45.48039" lon="5.9544">
        <ele>568.6</ele>
        <time>2013-05-11T14:59:00Z</time>
      </trkpt>
      <trkpt lat="45.48037" lon="5.95447">
        <ele>568.52</ele>
        <time>2013-05-11T14:59:19Z</time>
      </trkpt>
      <trkpt lat="45.48033" lon="5.95449">
        <ele>568.53</ele>
        <time>2013-05-11T14:59:22Z</time>
      </trkpt>
      <trkpt lat="45.48032" lon="5.95456">
        <ele>568.3</ele>
        <time>2013-05-11T14:59:28Z</time>
      </trkpt>
      <trkpt lat="45.4803" lon="5.95462">
        <ele>568.19</ele>
        <time>2013-05-11T14:59:31Z</time>
      </trkpt>
      <trkpt lat="45.48027" lon="5.95468">
        <ele>568.16</ele>
        <time>2013-05-11T14:59:33Z</time>
      </trkpt>
      <trkpt lat="45.48024" lon="5.95473">
        <ele>568.11</ele>
        <time>2013-05-11T14:59:36Z</time>
      </trkpt>
      <trkpt lat="45.48021" lon="5.95478">
        <ele>568.05</ele>
        <time>2013-05-11T14:59:39Z</time>
      </trkpt>
      <trkpt lat="45.48023" lon="5.95472">
        <ele>567.6</ele>
        <time>2013-05-11T15:00:00Z</time>
      </trkpt>
      <trkpt lat="45.48028" lon="5.95476">
        <ele>567.39</ele>
        <time>2013-05-11T15:00:07Z</time>
      </trkpt>
      <trkpt lat="45.48029" lon="5.95485">
        <ele>567.26</ele>
        <time>2013-05-11T15:00:11Z</time>
      </trkpt>
      <trkpt lat="45.48028" lon="5.95492">
        <ele>567.13</ele>
        <time>2013-05-11T15:00:15Z</time>
      </trkpt>
      <trkpt lat="45.48026" lon="5.95499">
        <ele>567.1</ele>
        <time>2013-05-11T15:00:16Z</time>
      </trkpt>
      <trkpt lat="45.48021" lon="5.95505">
        <ele>567.02</ele>
        <time>2013-05-11T15:00:18Z</time>
      </trkpt>
      <trkpt lat="45.48017" lon="5.9551">
        <ele>566.91</ele>
        <time>2013-05-11T15:00:21Z</time>
      </trkpt>
      <trkpt lat="45.48019" lon="5.95516">
        <ele>566.58</ele>
        <time>2013-05-11T15:00:28Z</time>
      </trkpt>
      <trkpt lat="45.4802" lon="5.95523">
        <ele>566.46</ele>
        <time>2013-05-11T15:00:31Z</time>
      </trkpt>
      <trkpt lat="45.48016" lon="5.95527">
        <ele>566.38</ele>
        <time>2013-05-11T15:00:33Z</time>
      </trkpt>
      <trkpt lat="45.48014" lon="5.95534">
        <ele>566.16</ele>
        <time>2013-05-11T15:00:36Z</time>
      </trkpt>
      <trkpt lat="45.48014" lon="5.9554">
        <ele>565.75</ele>
        <time>2013-05-11T15:00:44Z</time>
      </trkpt>
      <trkpt lat="45.48012" lon="5.95548">
        <ele>564.72</ele>
        <time>2013-05-11T15:01:05Z</time>
      </trkpt>
      <trkpt lat="45.4801" lon="5.95555">
        <ele>564.52</ele>
        <time>2013-05-11T15:01:09Z</time>
      </trkpt>
      <trkpt lat="45.4801" lon="5.95567">
        <ele>564.27</ele>
        <time>2013-05-11T15:01:15Z</time>
      </trkpt>
      <trkpt lat="45.48004" lon="5.95576">
        <ele>563.94</ele>
        <time>2013-05-11T15:01:19Z</time>
      </trkpt>
      <trkpt lat="45.48008" lon="5.95581">
        <ele>563.39</ele>
        <time>2013-05-11T15:01:24Z</time>
      </trkpt>
      <trkpt lat="45.48002" lon="5.95588">
        <ele>562.54</ele>
        <time>2013-05-11T15:01:35Z</time>
      </trkpt>
      <trkpt lat="45.47997" lon="5.95591">
        <ele>562.4</ele>
        <time>2013-05-11T15:01:42Z</time>
      </trkpt>
      <trkpt lat="45.47993" lon="5.95596">
        <ele>562.24</ele>
        <time>2013-05-11T15:01:48Z</time>
      </trkpt>
      <trkpt lat="45.47993" lon="5.95604">
        <ele>561.79</ele>
        <time>2013-05-11T15:02:14Z</time>
      </trkpt>
      <trkpt lat="45.47997" lon="5.95608">
        <ele>561.4</ele>
        <time>2013-05-11T15:02:21Z</time>
      </trkpt>
      <trkpt lat="45.47999" lon="5.95615">
        <ele>561.19</ele>
        <time>2013-05-11T15:02:27Z</time>
      </trkpt>
      <trkpt lat="45.48002" lon="5.95621">
        <ele>561</ele>
        <time>2013-05-11T15:02:30Z</time>
      </trkpt>
      <trkpt lat="45.48002" lon="5.95628">
        <ele>560.79</ele>
        <time>2013-05-11T15:02:34Z</time>
      </trkpt>
      <trkpt lat="45.48" lon="5.95639">
        <ele>559.74</ele>
        <time>2013-05-11T15:02:54Z</time>
      </trkpt>
      <trkpt lat="45.48005" lon="5.95634">
        <ele>559.41</ele>
        <time>2013-05-11T15:03:07Z</time>
      </trkpt>
      <trkpt lat="45.48002" lon="5.95641">
        <ele>559.31</ele>
        <time>2013-05-11T15:03:09Z</time>
      </trkpt>
      <trkpt lat="45.47998" lon="5.95647">
        <ele>559.25</ele>
        <time>2013-05-11T15:03:11Z</time>
      </trkpt>
      <trkpt lat="45.47995" lon="5.95651">
        <ele>559.13</ele>
        <time>2013-05-11T15:03:27Z</time>
      </trkpt>
      <trkpt lat="45.47989" lon="5.95657">
        <ele>559</ele>
        <time>2013-05-11T15:03:30Z</time>
      </trkpt>
      <trkpt lat="45.47986" lon="5.95662">
        <ele>558.88</ele>
        <time>2013-05-11T15:03:33Z</time>
      </trkpt>
      <trkpt lat="45.47981" lon="5.95666">
        <ele>558.7</ele>
        <time>2013-05-11T15:03:39Z</time>
      </trkpt>
      <trkpt lat="45.4798" lon="5.95674">
        <ele>558.47</ele>
        <time>2013-05-11T15:03:46Z</time>
      </trkpt>
      <trkpt lat="45.47979" lon="5.95681">
        <ele>558.19</ele>
        <time>2013-05-11T15:03:52Z</time>
      </trkpt>
      <trkpt lat="45.47976" lon="5.95686">
        <ele>557.79</ele>
        <time>2013-05-11T15:04:15Z</time>
      </trkpt>
      <trkpt lat="45.47982" lon="5.95684">
        <ele>557.64</ele>
        <time>2013-05-11T15:04:41Z</time>
      </trkpt>
      <trkpt lat="45.47987" lon="5.95686">
        <ele>557.59</ele>
        <time>2013-05-11T15:04:47Z</time>
      </trkpt>
      <trkpt lat="45.47992" lon="5.95686">
        <ele>557.52</ele>
        <time>2013-05-11T15:04:49Z</time>
      </trkpt>
      <trkpt lat="45.47988" lon="5.9569">
        <ele>557.36</ele>
        <time>2013-05-11T15:04:51Z</time>
      </trkpt>
      <trkpt lat="45.47984" lon="5.95694">
        <ele>556.9</ele>
        <time>2013-05-11T15:05:03Z</time>
      </trkpt>
      <trkpt lat="45.47989" lon="5.95699">
        <ele>556.88</ele>
        <time>2013-05-11T15:05:08Z</time>
      </trkpt>
      <trkpt lat="45.47993" lon="5.95703">
        <ele>556.82</ele>
        <time>2013-05-11T15:05:11Z</time>
      </trkpt>
      <trkpt lat="45.47996" lon="5.95708">
        <ele>556.75</ele>
        <time>2013-05-11T15:05:15Z</time>
      </trkpt>
      <trkpt lat="45.47992" lon="5.95714">
        <ele>556.74</ele>
        <time>2013-05-11T15:05:18Z</time>
      </trkpt>
      <trkpt lat="45.47989" lon="5.95719">
        <ele>556.71</ele>
        <time>2013-05-11T15:05:20Z</time>
      </trkpt>
      <trkpt lat="45.47992" lon="5.95714">
        <ele>556.78</ele>
        <time>2013-05-11T15:05:45Z</time>
      </trkpt>
      <trkpt lat="45.47991" lon="5.95721">
        <ele>556.48</ele>
        <time>2013-05-11T15:05:57Z</time>
      </trkpt>
      <trkpt lat="45.47998" lon="5.95723">
        <ele>556.43</ele>
        <time>2013-05-11T15:05:59Z</time>
      </trkpt>
      <trkpt lat="45.48005" lon="5.95725">
        <ele>556.33</ele>
        <time>2013-05-11T15:06:06Z</time>
      </trkpt>
      <trkpt lat="45.48009" lon="5.9573">
        <ele>556.3</ele>
        <time>2013-05-11T15:06:09Z</time>
      </trkpt>
      <trkpt lat="45.48011" lon="5.95724">
        <ele>556.23</ele>
        <time>2013-05-11T15:06:16Z</time>
      </trkpt>
      <trkpt lat="45.48014" lon="5.95729">
        <ele>556.18</ele>
        <time>2013-05-11T15:06:30Z</time>
      </trkpt>
      <trkpt lat="45.48016" lon="5.95735">
        <ele>555.99</ele>
        <time>2013-05-11T15:06:35Z</time>
      </trkpt>
      <trkpt lat="45.4801" lon="5.95738">
        <ele>555.6</ele>
        <time>2013-05-11T15:06:39Z</time>
      </trkpt>
      <trkpt lat="45.4801" lon="5.9575">
        <ele>554.93</ele>
        <time>2013-05-11T15:06:59Z</time>
      </trkpt>
      <trkpt lat="45.48005" lon="5.95754">
        <ele>554.45</ele>
        <time>2013-05-11T15:07:05Z</time>
      </trkpt>
      <trkpt lat="45.48" lon="5.95756">
        <ele>554.33</ele>
        <time>2013-05-11T15:07:06Z</time>
      </trkpt>
      <trkpt lat="45.47994" lon="5.95757">
        <ele>554.19</ele>
        <time>2013-05-11T15:07:07Z</time>
      </trkpt>
      <trkpt lat="45.47989" lon="5.95763">
        <ele>553.85</ele>
        <time>2013-05-11T15:07:10Z</time>
      </trkpt>
      <trkpt lat="45.47983" lon="5.95769">
        <ele>553.55</ele>
        <time>2013-05-11T15:07:12Z</time>
      </trkpt>
      <trkpt lat="45.47979" lon="5.95774">
        <ele>553.2</ele>
        <time>2013-05-11T15:07:14Z</time>
      </trkpt>
      <trkpt lat="45.47977" lon="5.95781">
        <ele>552.77</ele>
        <time>2013-05-11T15:07:16Z</time>
      </trkpt>
      <trkpt lat="45.47974" lon="5.95787">
        <ele>551.8</ele>
        <time>2013-05-11T15:07:20Z</time>
      </trkpt>
      <trkpt lat="45.47969" lon="5.95786">
        <ele>550.84</ele>
        <time>2013-05-11T15:07:26Z</time>
      </trkpt>
      <trkpt lat="45.47967" lon="5.95795">
        <ele>550.21</ele>
        <time>2013-05-11T15:07:29Z</time>
      </trkpt>
      <trkpt lat="45.47963" lon="5.958">
        <ele>549.53</ele>
        <time>2013-05-11T15:07:32Z</time>
      </trkpt>
      <trkpt lat="45.47964" lon="5.95809">
        <ele>547.68</ele>
        <time>2013-05-11T15:08:02Z</time>
      </trkpt>
      <trkpt lat="45.47968" lon="5.95813">
        <ele>547.43</ele>
        <time>2013-05-11T15:08:06Z</time>
      </trkpt>
      <trkpt lat="45.47969" lon="5.95831">
        <ele>546.35</ele>
        <time>2013-05-11T15:08:21Z</time>
      </trkpt>
      <trkpt lat="45.47965" lon="5.9584">
        <ele>543.94</ele>
        <time>2013-05-11T15:08:37Z</time>
      </trkpt>
      <trkpt lat="45.4796" lon="5.95843">
        <ele>542.85</ele>
        <time>2013-05-11T15:08:46Z</time>
      </trkpt>
      <trkpt lat="45.47956" lon="5.95849">
        <ele>542.59</ele>
        <time>2013-05-11T15:08:51Z</time>
      </trkpt>
      <trkpt lat="45.47954" lon="5.95855">
        <ele>542.47</ele>
        <time>2013-05-11T15:08:53Z</time>
      </trkpt>
      <trkpt lat="45.47952" lon="5.95861">
        <ele>542.32</ele>
        <time>2013-05-11T15:08:55Z</time>
      </trkpt>
      <trkpt lat="45.47951" lon="5.95868">
        <ele>541.94</ele>
        <time>2013-05-11T15:09:02Z</time>
      </trkpt>
      <trkpt lat="45.47957" lon="5.95869">
        <ele>541.75</ele>
        <time>2013-05-11T15:09:09Z</time>
      </trkpt>
      <trkpt lat="45.47961" lon="5.95872">
        <ele>541.65</ele>
        <time>2013-05-11T15:09:11Z</time>
      </trkpt>
      <trkpt lat="45.47965" lon="5.9587">
        <ele>541.55</ele>
        <time>2013-05-11T15:09:14Z</time>
      </trkpt>
      <trkpt lat="45.47969" lon="5.95858">
        <ele>541.27</ele>
        <time>2013-05-11T15:09:19Z</time>
      </trkpt>
      <trkpt lat="45.47972" lon="5.95852">
        <ele>540.77</ele>
        <time>2013-05-11T15:09:47Z</time>
      </trkpt>
      <trkpt lat="45.47976" lon="5.9585">
        <ele>540.75</ele>
        <time>2013-05-11T15:09:51Z</time>
      </trkpt>
      <trkpt lat="45.47983" lon="5.95854">
        <ele>540.56</ele>
        <time>2013-05-11T15:09:54Z</time>
      </trkpt>
      <trkpt lat="45.47989" lon="5.95858">
        <ele>540.34</ele>
        <time>2013-05-11T15:09:56Z</time>
      </trkpt>
      <trkpt lat="45.47996" lon="5.95859">
        <ele>540.03</ele>
        <time>2013-05-11T15:09:59Z</time>
      </trkpt>
      <trkpt lat="45.48001" lon="5.95861">
        <ele>539.76</ele>
        <time>2013-05-11T15:10:02Z</time>
      </trkpt>
      <trkpt lat="45.48006" lon="5.9586">
        <ele>539.55</ele>
        <time>2013-05-11T15:10:05Z</time>
      </trkpt>
      <trkpt lat="45.48011" lon="5.95858">
        <ele>539.39</ele>
        <time>2013-05-11T15:10:08Z</time>
      </trkpt>
      <trkpt lat="45.48015" lon="5.95862">
        <ele>539.24</ele>
        <time>2013-05-11T15:10:11Z</time>
      </trkpt>
      <trkpt lat="45.4801" lon="5.95865">
        <ele>538.36</ele>
        <time>2013-05-11T15:10:17Z</time>
      </trkpt>
      <trkpt lat="45.48016" lon="5.95865">
        <ele>537.13</ele>
        <time>2013-05-11T15:10:26Z</time>
      </trkpt>
      <trkpt lat="45.4802" lon="5.95862">
        <ele>536.73</ele>
        <time>2013-05-11T15:10:30Z</time>
      </trkpt>
      <trkpt lat="45.48026" lon="5.95864">
        <ele>536.27</ele>
        <time>2013-05-11T15:10:36Z</time>
      </trkpt>
      <trkpt lat="45.48031" lon="5.95863">
        <ele>536.03</ele>
        <time>2013-05-11T15:10:39Z</time>
      </trkpt>
      <trkpt lat="45.48036" lon="5.95858">
        <ele>535.52</ele>
        <time>2013-05-11T15:10:44Z</time>
      </trkpt>
      <trkpt lat="45.48041" lon="5.95855">
        <ele>535.39</ele>
        <time>2013-05-11T15:10:45Z</time>
      </trkpt>
      <trkpt lat="45.48047" lon="5.95854">
        <ele>534.04</ele>
        <time>2013-05-11T15:10:53Z</time>
      </trkpt>
      <trkpt lat="45.48051" lon="5.95857">
        <ele>533.54</ele>
        <time>2013-05-11T15:10:58Z</time>
      </trkpt>
      <trkpt lat="45.48055" lon="5.95861">
        <ele>533.23</ele>
        <time>2013-05-11T15:11:01Z</time>
      </trkpt>
      <trkpt lat="45.4806" lon="5.95865">
        <ele>532.94</ele>
        <time>2013-05-11T15:11:05Z</time>
      </trkpt>
      <trkpt lat="45.48065" lon="5.95871">
        <ele>532.3</ele>
        <time>2013-05-11T15:11:10Z</time>
      </trkpt>
      <trkpt lat="45.48071" lon="5.95871">
        <ele>531.74</ele>
        <time>2013-05-11T15:11:14Z</time>
      </trkpt>
      <trkpt lat="45.48076" lon="5.95873">
        <ele>530.7</ele>
        <time>2013-05-11T15:11:21Z</time>
      </trkpt>
      <trkpt lat="45.48083" lon="5.95871">
        <ele>529.07</ele>
        <time>2013-05-11T15:11:29Z</time>
      </trkpt>
      <trkpt lat="45.48088" lon="5.95869">
        <ele>528.39</ele>
        <time>2013-05-11T15:11:35Z</time>
      </trkpt>
      <trkpt lat="45.48093" lon="5.95868">
        <ele>527.77</ele>
        <time>2013-05-11T15:11:40Z</time>
      </trkpt>
      <trkpt lat="45.48097" lon="5.9587">
        <ele>527.18</ele>
        <time>2013-05-11T15:11:44Z</time>
      </trkpt>
      <trkpt lat="45.48102" lon="5.95871">
        <ele>526.85</ele>
        <time>2013-05-11T15:11:47Z</time>
      </trkpt>
      <trkpt lat="45.48105" lon="5.95876">
        <ele>526.49</ele>
        <time>2013-05-11T15:11:52Z</time>
      </trkpt>
      <trkpt lat="45.48112" lon="5.95876">
        <ele>526.3</ele>
        <time>2013-05-11T15:11:55Z</time>
      </trkpt>
      <trkpt lat="45.48117" lon="5.95875">
        <ele>526.08</ele>
        <time>2013-05-11T15:11:58Z</time>
      </trkpt>
      <trkpt lat="45.48121" lon="5.95874">
        <ele>525.88</ele>
        <time>2013-05-11T15:12:01Z</time>
      </trkpt>
      <trkpt lat="45.48127" lon="5.95871">
        <ele>525.14</ele>
        <time>2013-05-11T15:12:19Z</time>
      </trkpt>
      <trkpt lat="45.48132" lon="5.95866">
        <ele>525.08</ele>
        <time>2013-05-11T15:12:22Z</time>
      </trkpt>
      <trkpt lat="45.48137" lon="5.9586">
        <ele>524.95</ele>
        <time>2013-05-11T15:12:25Z</time>
      </trkpt>
      <trkpt lat="45.48141" lon="5.95856">
        <ele>524.83</ele>
        <time>2013-05-11T15:12:29Z</time>
      </trkpt>
      <trkpt lat="45.48145" lon="5.95851">
        <ele>524.92</ele>
        <time>2013-05-11T15:12:33Z</time>
      </trkpt>
      <trkpt lat="45.48149" lon="5.95848">
        <ele>524.76</ele>
        <time>2013-05-11T15:12:35Z</time>
      </trkpt>
      <trkpt lat="45.48154" lon="5.95844">
        <ele>523.7</ele>
        <time>2013-05-11T15:12:44Z</time>
      </trkpt>
      <trkpt lat="45.48157" lon="5.95839">
        <ele>523.34</ele>
        <time>2013-05-11T15:12:48Z</time>
      </trkpt>
      <trkpt lat="45.48163" lon="5.95835">
        <ele>522.79</ele>
        <time>2013-05-11T15:12:57Z</time>
      </trkpt>
      <trkpt lat="45.48168" lon="5.95835">
        <ele>522.31</ele>
        <time>2013-05-11T15:13:03Z</time>
      </trkpt>
      <trkpt lat="45.48173" lon="5.95837">
        <ele>522</ele>
        <time>2013-05-11T15:13:07Z</time>
      </trkpt>
      <trkpt lat="45.48176" lon="5.95842">
        <ele>521.74</ele>
        <time>2013-05-11T15:13:11Z</time>
      </trkpt>
      <trkpt lat="45.48176" lon="5.95851">
        <ele>521.3</ele>
        <time>2013-05-11T15:13:28Z</time>
      </trkpt>
      <trkpt lat="45.48177" lon="5.95858">
        <ele>521.17</ele>
        <time>2013-05-11T15:13:32Z</time>
      </trkpt>
      <trkpt lat="45.48176" lon="5.95866">
        <ele>520.93</ele>
        <time>2013-05-11T15:13:36Z</time>
      </trkpt>
      <trkpt lat="45.48175" lon="5.95876">
        <ele>520.29</ele>
        <time>2013-05-11T15:13:47Z</time>
      </trkpt>
      <trkpt lat="45.48172" lon="5.95881">
        <ele>519.73</ele>
        <time>2013-05-11T15:13:51Z</time>
      </trkpt>
      <trkpt lat="45.48165" lon="5.95886">
        <ele>519.05</ele>
        <time>2013-05-11T15:13:55Z</time>
      </trkpt>
      <trkpt lat="45.48165" lon="5.95893">
        <ele>517.48</ele>
        <time>2013-05-11T15:14:01Z</time>
      </trkpt>
      <trkpt lat="45.48163" lon="5.95906">
        <ele>515.85</ele>
        <time>2013-05-11T15:14:06Z</time>
      </trkpt>
      <trkpt lat="45.48161" lon="5.95913">
        <ele>514.43</ele>
        <time>2013-05-11T15:14:09Z</time>
      </trkpt>
      <trkpt lat="45.48163" lon="5.95919">
        <ele>512.46</ele>
        <time>2013-05-11T15:14:16Z</time>
      </trkpt>
      <trkpt lat="45.4816" lon="5.95925">
        <ele>511.5</ele>
        <time>2013-05-11T15:14:30Z</time>
      </trkpt>
      <trkpt lat="45.48159" lon="5.95933">
        <ele>511.18</ele>
        <time>2013-05-11T15:14:34Z</time>
      </trkpt>
      <trkpt lat="45.4816" lon="5.95939">
        <ele>510.76</ele>
        <time>2013-05-11T15:14:39Z</time>
      </trkpt>
      <trkpt lat="45.48159" lon="5.95947">
        <ele>508.13</ele>
        <time>2013-05-11T15:14:48Z</time>
      </trkpt>
      <trkpt lat="45.48159" lon="5.95966">
        <ele>505.76</ele>
        <time>2013-05-11T15:15:05Z</time>
      </trkpt>
      <trkpt lat="45.48155" lon="5.9597">
        <ele>504.79</ele>
        <time>2013-05-11T15:15:11Z</time>
      </trkpt>
      <trkpt lat="45.48152" lon="5.95975">
        <ele>504.31</ele>
        <time>2013-05-11T15:15:17Z</time>
      </trkpt>
      <trkpt lat="45.48151" lon="5.95981">
        <ele>503.87</ele>
        <time>2013-05-11T15:15:25Z</time>
      </trkpt>
      <trkpt lat="45.48154" lon="5.95988">
        <ele>503.33</ele>
        <time>2013-05-11T15:15:33Z</time>
      </trkpt>
      <trkpt lat="45.48153" lon="5.95981">
        <ele>502.71</ele>
        <time>2013-05-11T15:15:44Z</time>
      </trkpt>
      <trkpt lat="45.48149" lon="5.95987">
        <ele>502.14</ele>
        <time>2013-05-11T15:15:52Z</time>
      </trkpt>
      <trkpt lat="45.48151" lon="5.95993">
        <ele>501.94</ele>
        <time>2013-05-11T15:15:57Z</time>
      </trkpt>
      <trkpt lat="45.48156" lon="5.95997">
        <ele>501.81</ele>
        <time>2013-05-11T15:16:03Z</time>
      </trkpt>
      <trkpt lat="45.48158" lon="5.96003">
        <ele>501.69</ele>
        <time>2013-05-11T15:16:07Z</time>
      </trkpt>
      <trkpt lat="45.48159" lon="5.96011">
        <ele>501.61</ele>
        <time>2013-05-11T15:16:12Z</time>
      </trkpt>
      <trkpt lat="45.48159" lon="5.9602">
        <ele>501.53</ele>
        <time>2013-05-11T15:16:15Z</time>
      </trkpt>
      <trkpt lat="45.48159" lon="5.96026">
        <ele>501.43</ele>
        <time>2013-05-11T15:16:18Z</time>
      </trkpt>
      <trkpt lat="45.48164" lon="5.96031">
        <ele>500.74</ele>
        <time>2013-05-11T15:16:29Z</time>
      </trkpt>
      <trkpt lat="45.48167" lon="5.96035">
        <ele>500.5</ele>
        <time>2013-05-11T15:16:36Z</time>
      </trkpt>
      <trkpt lat="45.48166" lon="5.96046">
        <ele>499.78</ele>
        <time>2013-05-11T15:16:55Z</time>
      </trkpt>
      <trkpt lat="45.48163" lon="5.96051">
        <ele>499.18</ele>
        <time>2013-05-11T15:17:09Z</time>
      </trkpt>
      <trkpt lat="45.48167" lon="5.96048">
        <ele>498.95</ele>
        <time>2013-05-11T15:17:14Z</time>
      </trkpt>
      <trkpt lat="45.48172" lon="5.96044">
        <ele>498.81</ele>
        <time>2013-05-11T15:17:20Z</time>
      </trkpt>
      <trkpt lat="45.48178" lon="5.96041">
        <ele>498.87</ele>
        <time>2013-05-11T15:17:24Z</time>
      </trkpt>
      <trkpt lat="45.48183" lon="5.96037">
        <ele>498.94</ele>
        <time>2013-05-11T15:17:28Z</time>
      </trkpt>
      <trkpt lat="45.48188" lon="5.9604">
        <ele>499.03</ele>
        <time>2013-05-11T15:17:32Z</time>
      </trkpt>
      <trkpt lat="45.4818" lon="5.9604">
        <ele>499.2</ele>
        <time>2013-05-11T15:17:41Z</time>
      </trkpt>
      <trkpt lat="45.48177" lon="5.96047">
        <ele>499.09</ele>
        <time>2013-05-11T15:17:46Z</time>
      </trkpt>
      <trkpt lat="45.48174" lon="5.96052">
        <ele>499.01</ele>
        <time>2013-05-11T15:17:47Z</time>
      </trkpt>
      <trkpt lat="45.48169" lon="5.96057">
        <ele>498.79</ele>
        <time>2013-05-11T15:17:50Z</time>
      </trkpt>
      <trkpt lat="45.48169" lon="5.96064">
        <ele>498.45</ele>
        <time>2013-05-11T15:17:57Z</time>
      </trkpt>
      <trkpt lat="45.48163" lon="5.96068">
        <ele>498.33</ele>
        <time>2013-05-11T15:18:02Z</time>
      </trkpt>
      <trkpt lat="45.4816" lon="5.96074">
        <ele>498.35</ele>
        <time>2013-05-11T15:18:07Z</time>
      </trkpt>
      <trkpt lat="45.48159" lon="5.96081">
        <ele>498.37</ele>
        <time>2013-05-11T15:18:12Z</time>
      </trkpt>
      <trkpt lat="45.48164" lon="5.96081">
        <ele>498.47</ele>
        <time>2013-05-11T15:18:22Z</time>
      </trkpt>
      <trkpt lat="45.48162" lon="5.96087">
        <ele>498.4</ele>
        <time>2013-05-11T15:18:31Z</time>
      </trkpt>
      <trkpt lat="45.48162" lon="5.96094">
        <ele>498.1</ele>
        <time>2013-05-11T15:18:34Z</time>
      </trkpt>
      <trkpt lat="45.48155" lon="5.96103">
        <ele>497.72</ele>
        <time>2013-05-11T15:18:37Z</time>
      </trkpt>
      <trkpt lat="45.48154" lon="5.96111">
        <ele>497.33</ele>
        <time>2013-05-11T15:18:40Z</time>
      </trkpt>
      <trkpt lat="45.4815" lon="5.96117">
        <ele>497.17</ele>
        <time>2013-05-11T15:18:42Z</time>
      </trkpt>
      <trkpt lat="45.48147" lon="5.96125">
        <ele>497.06</ele>
        <time>2013-05-11T15:18:45Z</time>
      </trkpt>
      <trkpt lat="45.48143" lon="5.96128">
        <ele>497.04</ele>
        <time>2013-05-11T15:18:48Z</time>
      </trkpt>
      <trkpt lat="45.48142" lon="5.96135">
        <ele>496.6</ele>
        <time>2013-05-11T15:19:00Z</time>
      </trkpt>
      <trkpt lat="45.48136" lon="5.96144">
        <ele>496.36</ele>
        <time>2013-05-11T15:19:12Z</time>
      </trkpt>
      <trkpt lat="45.48132" lon="5.96148">
        <ele>496.17</ele>
        <time>2013-05-11T15:19:14Z</time>
      </trkpt>
      <trkpt lat="45.48127" lon="5.96152">
        <ele>495.97</ele>
        <time>2013-05-11T15:19:16Z</time>
      </trkpt>
      <trkpt lat="45.48128" lon="5.9616">
        <ele>495.28</ele>
        <time>2013-05-11T15:19:24Z</time>
      </trkpt>
      <trkpt lat="45.48131" lon="5.96166">
        <ele>495.12</ele>
        <time>2013-05-11T15:19:28Z</time>
      </trkpt>
      <trkpt lat="45.48143" lon="5.96174">
        <ele>494.95</ele>
        <time>2013-05-11T15:19:32Z</time>
      </trkpt>
      <trkpt lat="45.48147" lon="5.96179">
        <ele>494.8</ele>
        <time>2013-05-11T15:19:33Z</time>
      </trkpt>
      <trkpt lat="45.48153" lon="5.96179">
        <ele>494.51</ele>
        <time>2013-05-11T15:19:35Z</time>
      </trkpt>
      <trkpt lat="45.48159" lon="5.96175">
        <ele>494.32</ele>
        <time>2013-05-11T15:19:37Z</time>
      </trkpt>
      <trkpt lat="45.48163" lon="5.96174">
        <ele>494.14</ele>
        <time>2013-05-11T15:19:39Z</time>
      </trkpt>
      <trkpt lat="45.48168" lon="5.96178">
        <ele>493.8</ele>
        <time>2013-05-11T15:19:45Z</time>
      </trkpt>
      <trkpt lat="45.4817" lon="5.96184">
        <ele>493.67</ele>
        <time>2013-05-11T15:19:48Z</time>
      </trkpt>
      <trkpt lat="45.48165" lon="5.96188">
        <ele>493.57</ele>
        <time>2013-05-11T15:19:57Z</time>
      </trkpt>
      <trkpt lat="45.48161" lon="5.96191">
        <ele>493.6</ele>
        <time>2013-05-11T15:19:58Z</time>
      </trkpt>
      <trkpt lat="45.48157" lon="5.96194">
        <ele>493.74</ele>
        <time>2013-05-11T15:20:03Z</time>
      </trkpt>
      <trkpt lat="45.48166" lon="5.96186">
        <ele>493.74</ele>
        <time>2013-05-11T15:20:06Z</time>
      </trkpt>
      <trkpt lat="45.48172" lon="5.96181">
        <ele>493.72</ele>
        <time>2013-05-11T15:20:07Z</time>
      </trkpt>
      <trkpt lat="45.4818" lon="5.96178">
        <ele>493.7</ele>
        <time>2013-05-11T15:20:09Z</time>
      </trkpt>
      <trkpt lat="45.48186" lon="5.96175">
        <ele>493.67</ele>
        <time>2013-05-11T15:20:11Z</time>
      </trkpt>
      <trkpt lat="45.48192" lon="5.96177">
        <ele>493.62</ele>
        <time>2013-05-11T15:20:14Z</time>
      </trkpt>
      <trkpt lat="45.48195" lon="5.96181">
        <ele>493.58</ele>
        <time>2013-05-11T15:20:16Z</time>
      </trkpt>
      <trkpt lat="45.48199" lon="5.96174">
        <ele>493.58</ele>
        <time>2013-05-11T15:20:22Z</time>
      </trkpt>
      <trkpt lat="45.48198" lon="5.96167">
        <ele>493.6</ele>
        <time>2013-05-11T15:20:29Z</time>
      </trkpt>
      <trkpt lat="45.48201" lon="5.96173">
        <ele>493.71</ele>
        <time>2013-05-11T15:20:37Z</time>
      </trkpt>
      <trkpt lat="45.48211" lon="5.96176">
        <ele>493.87</ele>
        <time>2013-05-11T15:20:49Z</time>
      </trkpt>
      <trkpt lat="45.48217" lon="5.96174">
        <ele>493.65</ele>
        <time>2013-05-11T15:20:54Z</time>
      </trkpt>
      <trkpt lat="45.48224" lon="5.96174">
        <ele>493.57</ele>
        <time>2013-05-11T15:20:56Z</time>
      </trkpt>
      <trkpt lat="45.48228" lon="5.96176">
        <ele>493.48</ele>
        <time>2013-05-11T15:21:00Z</time>
      </trkpt>
      <trkpt lat="45.4823" lon="5.9617">
        <ele>492.54</ele>
        <time>2013-05-11T15:21:13Z</time>
      </trkpt>
      <trkpt lat="45.48234" lon="5.96168">
        <ele>492.12</ele>
        <time>2013-05-11T15:21:19Z</time>
      </trkpt>
      <trkpt lat="45.48239" lon="5.96166">
        <ele>491.39</ele>
        <time>2013-05-11T15:21:25Z</time>
      </trkpt>
      <trkpt lat="45.48245" lon="5.96168">
        <ele>490.4</ele>
        <time>2013-05-11T15:21:35Z</time>
      </trkpt>
      <trkpt lat="45.48247" lon="5.96163">
        <ele>490.04</ele>
        <time>2013-05-11T15:21:39Z</time>
      </trkpt>
      <trkpt lat="45.48252" lon="5.9616">
        <ele>489.55</ele>
        <time>2013-05-11T15:21:44Z</time>
      </trkpt>
      <trkpt lat="45.48256" lon="5.96156">
        <ele>488.69</ele>
        <time>2013-05-11T15:21:51Z</time>
      </trkpt>
      <trkpt lat="45.48256" lon="5.96148">
        <ele>488.03</ele>
        <time>2013-05-11T15:21:57Z</time>
      </trkpt>
      <trkpt lat="45.48261" lon="5.9614">
        <ele>486.85</ele>
        <time>2013-05-11T15:22:09Z</time>
      </trkpt>
      <trkpt lat="45.48268" lon="5.96136">
        <ele>485.73</ele>
        <time>2013-05-11T15:22:20Z</time>
      </trkpt>
      <trkpt lat="45.48272" lon="5.96133">
        <ele>485.04</ele>
        <time>2013-05-11T15:22:25Z</time>
      </trkpt>
      <trkpt lat="45.48278" lon="5.96129">
        <ele>484.68</ele>
        <time>2013-05-11T15:22:30Z</time>
      </trkpt>
      <trkpt lat="45.48279" lon="5.96122">
        <ele>483.99</ele>
        <time>2013-05-11T15:22:38Z</time>
      </trkpt>
      <trkpt lat="45.48284" lon="5.9612">
        <ele>483.87</ele>
        <time>2013-05-11T15:22:41Z</time>
      </trkpt>
      <trkpt lat="45.48289" lon="5.96119">
        <ele>483.91</ele>
        <time>2013-05-11T15:22:43Z</time>
      </trkpt>
      <trkpt lat="45.48295" lon="5.96119">
        <ele>483.95</ele>
        <time>2013-05-11T15:22:46Z</time>
      </trkpt>
      <trkpt lat="45.483" lon="5.9612">
        <ele>483.94</ele>
        <time>2013-05-11T15:22:48Z</time>
      </trkpt>
      <trkpt lat="45.48306" lon="5.9612">
        <ele>483.87</ele>
        <time>2013-05-11T15:22:50Z</time>
      </trkpt>
      <trkpt lat="45.48309" lon="5.96127">
        <ele>483.97</ele>
        <time>2013-05-11T15:22:54Z</time>
      </trkpt>
      <trkpt lat="45.48312" lon="5.96132">
        <ele>484.16</ele>
        <time>2013-05-11T15:22:57Z</time>
      </trkpt>
      <trkpt lat="45.48314" lon="5.96138">
        <ele>484.37</ele>
        <time>2013-05-11T15:23:00Z</time>
      </trkpt>
      <trkpt lat="45.48314" lon="5.96145">
        <ele>484.51</ele>
        <time>2013-05-11T15:23:04Z</time>
      </trkpt>
      <trkpt lat="45.48314" lon="5.96151">
        <ele>484.44</ele>
        <time>2013-05-11T15:23:09Z</time>
      </trkpt>
      <trkpt lat="45.48318" lon="5.96156">
        <ele>484.42</ele>
        <time>2013-05-11T15:23:13Z</time>
      </trkpt>
      <trkpt lat="45.48324" lon="5.96157">
        <ele>484.54</ele>
        <time>2013-05-11T15:23:16Z</time>
      </trkpt>
      <trkpt lat="45.48328" lon="5.96161">
        <ele>484.62</ele>
        <time>2013-05-11T15:23:24Z</time>
      </trkpt>
      <trkpt lat="45.48329" lon="5.9617">
        <ele>484.72</ele>
        <time>2013-05-11T15:23:34Z</time>
      </trkpt>
      <trkpt lat="45.48328" lon="5.96177">
        <ele>484.64</ele>
        <time>2013-05-11T15:23:57Z</time>
      </trkpt>
      <trkpt lat="45.48333" lon="5.96178">
        <ele>484.57</ele>
        <time>2013-05-11T15:23:59Z</time>
      </trkpt>
      <trkpt lat="45.48338" lon="5.96178">
        <ele>484.46</ele>
        <time>2013-05-11T15:24:02Z</time>
      </trkpt>
      <trkpt lat="45.48344" lon="5.96178">
        <ele>484.41</ele>
        <time>2013-05-11T15:24:05Z</time>
      </trkpt>
      <trkpt lat="45.4835" lon="5.96177">
        <ele>484.4</ele>
        <time>2013-05-11T15:24:07Z</time>
      </trkpt>
      <trkpt lat="45.48354" lon="5.96175">
        <ele>484.39</ele>
        <time>2013-05-11T15:24:09Z</time>
      </trkpt>
      <trkpt lat="45.48359" lon="5.96172">
        <ele>484.3</ele>
        <time>2013-05-11T15:24:14Z</time>
      </trkpt>
      <trkpt lat="45.48354" lon="5.96175">
        <ele>484.23</ele>
        <time>2013-05-11T15:24:17Z</time>
      </trkpt>
      <trkpt lat="45.4835" lon="5.96171">
        <ele>484.06</ele>
        <time>2013-05-11T15:24:27Z</time>
      </trkpt>
      <trkpt lat="45.48348" lon="5.96178">
        <ele>483.93</ele>
        <time>2013-05-11T15:24:32Z</time>
      </trkpt>
      <trkpt lat="45.48343" lon="5.96176">
        <ele>481.55</ele>
        <time>2013-05-11T15:24:44Z</time>
      </trkpt>
      <trkpt lat="45.48346" lon="5.96184">
        <ele>480.4</ele>
        <time>2013-05-11T15:24:50Z</time>
      </trkpt>
      <trkpt lat="45.48349" lon="5.96189">
        <ele>479.92</ele>
        <time>2013-05-11T15:24:53Z</time>
      </trkpt>
      <trkpt lat="45.48353" lon="5.96193">
        <ele>479.45</ele>
        <time>2013-05-11T15:24:57Z</time>
      </trkpt>
      <trkpt lat="45.48355" lon="5.96199">
        <ele>478.84</ele>
        <time>2013-05-11T15:25:02Z</time>
      </trkpt>
      <trkpt lat="45.48358" lon="5.96204">
        <ele>477.81</ele>
        <time>2013-05-11T15:25:11Z</time>
      </trkpt>
      <trkpt lat="45.48365" lon="5.96208">
        <ele>477.36</ele>
        <time>2013-05-11T15:25:17Z</time>
      </trkpt>
      <trkpt lat="45.4837" lon="5.96212">
        <ele>476.97</ele>
        <time>2013-05-11T15:25:20Z</time>
      </trkpt>
      <trkpt lat="45.48374" lon="5.96216">
        <ele>476.57</ele>
        <time>2013-05-11T15:25:23Z</time>
      </trkpt>
      <trkpt lat="45.48376" lon="5.96222">
        <ele>476.32</ele>
        <time>2013-05-11T15:25:26Z</time>
      </trkpt>
      <trkpt lat="45.48377" lon="5.96229">
        <ele>476.15</ele>
        <time>2013-05-11T15:25:29Z</time>
      </trkpt>
      <trkpt lat="45.48373" lon="5.9624">
        <ele>475.88</ele>
        <time>2013-05-11T15:25:34Z</time>
      </trkpt>
      <trkpt lat="45.4838" lon="5.96246">
        <ele>474.29</ele>
        <time>2013-05-11T15:25:58Z</time>
      </trkpt>
      <trkpt lat="45.48383" lon="5.96239">
        <ele>473.54</ele>
        <time>2013-05-11T15:26:01Z</time>
      </trkpt>
      <trkpt lat="45.48386" lon="5.96232">
        <ele>473.27</ele>
        <time>2013-05-11T15:26:03Z</time>
      </trkpt>
      <trkpt lat="45.48387" lon="5.96223">
        <ele>473.06</ele>
        <time>2013-05-11T15:26:06Z</time>
      </trkpt>
      <trkpt lat="45.48386" lon="5.96216">
        <ele>472.93</ele>
        <time>2013-05-11T15:26:08Z</time>
      </trkpt>
      <trkpt lat="45.48383" lon="5.96208">
        <ele>472.75</ele>
        <time>2013-05-11T15:26:10Z</time>
      </trkpt>
      <trkpt lat="45.48385" lon="5.96199">
        <ele>472.59</ele>
        <time>2013-05-11T15:26:12Z</time>
      </trkpt>
      <trkpt lat="45.48383" lon="5.9619">
        <ele>472.38</ele>
        <time>2013-05-11T15:26:15Z</time>
      </trkpt>
      <trkpt lat="45.48384" lon="5.96183">
        <ele>472.22</ele>
        <time>2013-05-11T15:26:17Z</time>
      </trkpt>
      <trkpt lat="45.48382" lon="5.96175">
        <ele>472.09</ele>
        <time>2013-05-11T15:26:19Z</time>
      </trkpt>
      <trkpt lat="45.48381" lon="5.96166">
        <ele>471.87</ele>
        <time>2013-05-11T15:26:22Z</time>
      </trkpt>
      <trkpt lat="45.48384" lon="5.96158">
        <ele>471.76</ele>
        <time>2013-05-11T15:26:24Z</time>
      </trkpt>
      <trkpt lat="45.48387" lon="5.96151">
        <ele>471.65</ele>
        <time>2013-05-11T15:26:26Z</time>
      </trkpt>
      <trkpt lat="45.48387" lon="5.96143">
        <ele>471.55</ele>
        <time>2013-05-11T15:26:28Z</time>
      </trkpt>
      <trkpt lat="45.48388" lon="5.96135">
        <ele>471.41</ele>
        <time>2013-05-11T15:26:30Z</time>
      </trkpt>
      <trkpt lat="45.48388" lon="5.96127">
        <ele>471.26</ele>
        <time>2013-05-11T15:26:32Z</time>
      </trkpt>
      <trkpt lat="45.48387" lon="5.9612">
        <ele>471.11</ele>
        <time>2013-05-11T15:26:34Z</time>
      </trkpt>
      <trkpt lat="45.48386" lon="5.96112">
        <ele>470.94</ele>
        <time>2013-05-11T15:26:36Z</time>
      </trkpt>
      <trkpt lat="45.48384" lon="5.96103">
        <ele>470.71</ele>
        <time>2013-05-11T15:26:38Z</time>
      </trkpt>
      <trkpt lat="45.48384" lon="5.96096">
        <ele>470.54</ele>
        <time>2013-05-11T15:26:40Z</time>
      </trkpt>
      <trkpt lat="45.48384" lon="5.96089">
        <ele>470.4</ele>
        <time>2013-05-11T15:26:42Z</time>
      </trkpt>
      <trkpt lat="45.48385" lon="5.96082">
        <ele>470.23</ele>
        <time>2013-05-11T15:26:44Z</time>
      </trkpt>
      <trkpt lat="45.48386" lon="5.96075">
        <ele>470.05</ele>
        <time>2013-05-11T15:26:46Z</time>
      </trkpt>
      <trkpt lat="45.48385" lon="5.96069">
        <ele>469.91</ele>
        <time>2013-05-11T15:26:48Z</time>
      </trkpt>
      <trkpt lat="45.48383" lon="5.9606">
        <ele>469.76</ele>
        <time>2013-05-11T15:26:50Z</time>
      </trkpt>
      <trkpt lat="45.48382" lon="5.96052">
        <ele>469.57</ele>
        <time>2013-05-11T15:26:52Z</time>
      </trkpt>
      <trkpt lat="45.4838" lon="5.96044">
        <ele>469.37</ele>
        <time>2013-05-11T15:26:54Z</time>
      </trkpt>
      <trkpt lat="45.48379" lon="5.96037">
        <ele>469.24</ele>
        <time>2013-05-11T15:26:56Z</time>
      </trkpt>
      <trkpt lat="45.48376" lon="5.96029">
        <ele>469.13</ele>
        <time>2013-05-11T15:26:58Z</time>
      </trkpt>
      <trkpt lat="45.48373" lon="5.96024">
        <ele>469.02</ele>
        <time>2013-05-11T15:27:00Z</time>
      </trkpt>
      <trkpt lat="45.48368" lon="5.96019">
        <ele>468.91</ele>
        <time>2013-05-11T15:27:02Z</time>
      </trkpt>
      <trkpt lat="45.48365" lon="5.96012">
        <ele>468.85</ele>
        <time>2013-05-11T15:27:04Z</time>
      </trkpt>
      <trkpt lat="45.48362" lon="5.96005">
        <ele>468.78</ele>
        <time>2013-05-11T15:27:06Z</time>
      </trkpt>
      <trkpt lat="45.4836" lon="5.95999">
        <ele>468.73</ele>
        <time>2013-05-11T15:27:08Z</time>
      </trkpt>
      <trkpt lat="45.48356" lon="5.95992">
        <ele>468.71</ele>
        <time>2013-05-11T15:27:10Z</time>
      </trkpt>
      <trkpt lat="45.48354" lon="5.95985">
        <ele>468.67</ele>
        <time>2013-05-11T15:27:13Z</time>
      </trkpt>
      <trkpt lat="45.48353" lon="5.95976">
        <ele>468.5</ele>
        <time>2013-05-11T15:27:17Z</time>
      </trkpt>
      <trkpt lat="45.48353" lon="5.95969">
        <ele>468.36</ele>
        <time>2013-05-11T15:27:21Z</time>
      </trkpt>
      <trkpt lat="45.48348" lon="5.95969">
        <ele>468.36</ele>
        <time>2013-05-11T15:27:24Z</time>
      </trkpt>
      <trkpt lat="45.48346" lon="5.95962">
        <ele>468.35</ele>
        <time>2013-05-11T15:27:29Z</time>
      </trkpt>
      <trkpt lat="45.48342" lon="5.95958">
        <ele>468.32</ele>
        <time>2013-05-11T15:27:31Z</time>
      </trkpt>
      <trkpt lat="45.48343" lon="5.95952">
        <ele>468.25</ele>
        <time>2013-05-11T15:27:34Z</time>
      </trkpt>
      <trkpt lat="45.48339" lon="5.95947">
        <ele>468.05</ele>
        <time>2013-05-11T15:27:40Z</time>
      </trkpt>
      <trkpt lat="45.48337" lon="5.9594">
        <ele>467.81</ele>
        <time>2013-05-11T15:27:45Z</time>
      </trkpt>
      <trkpt lat="45.48338" lon="5.95933">
        <ele>467.51</ele>
        <time>2013-05-11T15:27:51Z</time>
      </trkpt>
      <trkpt lat="45.48339" lon="5.95926">
        <ele>467.28</ele>
        <time>2013-05-11T15:27:55Z</time>
      </trkpt>
      <trkpt lat="45.48338" lon="5.95918">
        <ele>466.9</ele>
        <time>2013-05-11T15:28:02Z</time>
      </trkpt>
      <trkpt lat="45.48335" lon="5.95914">
        <ele>466.8</ele>
        <time>2013-05-11T15:28:04Z</time>
      </trkpt>
      <trkpt lat="45.4833" lon="5.9591">
        <ele>466.54</ele>
        <time>2013-05-11T15:28:11Z</time>
      </trkpt>
      <trkpt lat="45.48326" lon="5.95905">
        <ele>466.28</ele>
        <time>2013-05-11T15:28:15Z</time>
      </trkpt>
      <trkpt lat="45.48323" lon="5.95899">
        <ele>466.04</ele>
        <time>2013-05-11T15:28:18Z</time>
      </trkpt>
      <trkpt lat="45.48319" lon="5.95896">
        <ele>465.82</ele>
        <time>2013-05-11T15:28:21Z</time>
      </trkpt>
      <trkpt lat="45.48317" lon="5.9589">
        <ele>465.6</ele>
        <time>2013-05-11T15:28:24Z</time>
      </trkpt>
      <trkpt lat="45.48313" lon="5.95885">
        <ele>465.32</ele>
        <time>2013-05-11T15:28:28Z</time>
      </trkpt>
      <trkpt lat="45.48313" lon="5.95878">
        <ele>465.03</ele>
        <time>2013-05-11T15:28:32Z</time>
      </trkpt>
      <trkpt lat="45.48311" lon="5.95871">
        <ele>464.8</ele>
        <time>2013-05-11T15:28:35Z</time>
      </trkpt>
      <trkpt lat="45.48308" lon="5.95865">
        <ele>464.63</ele>
        <time>2013-05-11T15:28:37Z</time>
      </trkpt>
      <trkpt lat="45.48304" lon="5.9586">
        <ele>464.36</ele>
        <time>2013-05-11T15:28:40Z</time>
      </trkpt>
      <trkpt lat="45.48303" lon="5.95853">
        <ele>463.87</ele>
        <time>2013-05-11T15:28:45Z</time>
      </trkpt>
      <trkpt lat="45.483" lon="5.95847">
        <ele>463.14</ele>
        <time>2013-05-11T15:28:52Z</time>
      </trkpt>
      <trkpt lat="45.48296" lon="5.9584">
        <ele>462.95</ele>
        <time>2013-05-11T15:28:55Z</time>
      </trkpt>
      <trkpt lat="45.48293" lon="5.95835">
        <ele>462.8</ele>
        <time>2013-05-11T15:28:57Z</time>
      </trkpt>
      <trkpt lat="45.4829" lon="5.95827">
        <ele>462.68</ele>
        <time>2013-05-11T15:28:59Z</time>
      </trkpt>
      <trkpt lat="45.48291" lon="5.95818">
        <ele>462.46</ele>
        <time>2013-05-11T15:29:03Z</time>
      </trkpt>
      <trkpt lat="45.48294" lon="5.95813">
        <ele>462.13</ele>
        <time>2013-05-11T15:29:08Z</time>
      </trkpt>
      <trkpt lat="45.48291" lon="5.95807">
        <ele>461.57</ele>
        <time>2013-05-11T15:29:18Z</time>
      </trkpt>
      <trkpt lat="45.48292" lon="5.95798">
        <ele>461.41</ele>
        <time>2013-05-11T15:29:21Z</time>
      </trkpt>
      <trkpt lat="45.48291" lon="5.95791">
        <ele>461.29</ele>
        <time>2013-05-11T15:29:24Z</time>
      </trkpt>
      <trkpt lat="45.48288" lon="5.95786">
        <ele>461.06</ele>
        <time>2013-05-11T15:29:29Z</time>
      </trkpt>
      <trkpt lat="45.48292" lon="5.95778">
        <ele>460.98</ele>
        <time>2013-05-11T15:29:31Z</time>
      </trkpt>
      <trkpt lat="45.48293" lon="5.95772">
        <ele>460.96</ele>
        <time>2013-05-11T15:29:33Z</time>
      </trkpt>
      <trkpt lat="45.48298" lon="5.95767">
        <ele>460.99</ele>
        <time>2013-05-11T15:29:35Z</time>
      </trkpt>
      <trkpt lat="45.483" lon="5.9576">
        <ele>461.03</ele>
        <time>2013-05-11T15:29:37Z</time>
      </trkpt>
      <trkpt lat="45.48303" lon="5.95754">
        <ele>461.01</ele>
        <time>2013-05-11T15:29:39Z</time>
      </trkpt>
      <trkpt lat="45.48304" lon="5.95748">
        <ele>460.99</ele>
        <time>2013-05-11T15:29:41Z</time>
      </trkpt>
      <trkpt lat="45.48307" lon="5.95741">
        <ele>460.99</ele>
        <time>2013-05-11T15:29:43Z</time>
      </trkpt>
      <trkpt lat="45.48308" lon="5.95734">
        <ele>460.96</ele>
        <time>2013-05-11T15:29:46Z</time>
      </trkpt>
      <trkpt lat="45.48307" lon="5.95727">
        <ele>460.92</ele>
        <time>2013-05-11T15:29:48Z</time>
      </trkpt>
      <trkpt lat="45.48305" lon="5.9572">
        <ele>460.93</ele>
        <time>2013-05-11T15:29:50Z</time>
      </trkpt>
      <trkpt lat="45.48306" lon="5.95712">
        <ele>460.97</ele>
        <time>2013-05-11T15:29:52Z</time>
      </trkpt>
      <trkpt lat="45.48306" lon="5.95706">
        <ele>461.02</ele>
        <time>2013-05-11T15:29:54Z</time>
      </trkpt>
      <trkpt lat="45.48311" lon="5.95701">
        <ele>461.05</ele>
        <time>2013-05-11T15:29:59Z</time>
      </trkpt>
      <trkpt lat="45.48315" lon="5.95695">
        <ele>461.11</ele>
        <time>2013-05-11T15:30:04Z</time>
      </trkpt>
      <trkpt lat="45.48318" lon="5.9569">
        <ele>461.33</ele>
        <time>2013-05-11T15:30:08Z</time>
      </trkpt>
      <trkpt lat="45.48321" lon="5.95684">
        <ele>461.73</ele>
        <time>2013-05-11T15:30:12Z</time>
      </trkpt>
      <trkpt lat="45.48324" lon="5.95678">
        <ele>461.95</ele>
        <time>2013-05-11T15:30:20Z</time>
      </trkpt>
      <trkpt lat="45.48326" lon="5.95671">
        <ele>461.84</ele>
        <time>2013-05-11T15:30:25Z</time>
      </trkpt>
      <trkpt lat="45.48326" lon="5.95664">
        <ele>461.8</ele>
        <time>2013-05-11T15:30:29Z</time>
      </trkpt>
      <trkpt lat="45.48332" lon="5.9566">
        <ele>461.84</ele>
        <time>2013-05-11T15:30:30Z</time>
      </trkpt>
      <trkpt lat="45.48338" lon="5.95657">
        <ele>461.95</ele>
        <time>2013-05-11T15:30:32Z</time>
      </trkpt>
      <trkpt lat="45.48344" lon="5.95654">
        <ele>462.12</ele>
        <time>2013-05-11T15:30:34Z</time>
      </trkpt>
      <trkpt lat="45.48349" lon="5.95653">
        <ele>462.38</ele>
        <time>2013-05-11T15:30:37Z</time>
      </trkpt>
      <trkpt lat="45.48355" lon="5.95652">
        <ele>462.63</ele>
        <time>2013-05-11T15:30:40Z</time>
      </trkpt>
      <trkpt lat="45.4836" lon="5.95654">
        <ele>462.77</ele>
        <time>2013-05-11T15:30:43Z</time>
      </trkpt>
      <trkpt lat="45.48367" lon="5.95654">
        <ele>463.05</ele>
        <time>2013-05-11T15:30:47Z</time>
      </trkpt>
      <trkpt lat="45.48373" lon="5.95655">
        <ele>463.26</ele>
        <time>2013-05-11T15:30:50Z</time>
      </trkpt>
      <trkpt lat="45.48378" lon="5.95655">
        <ele>463.64</ele>
        <time>2013-05-11T15:30:54Z</time>
      </trkpt>
      <trkpt lat="45.48383" lon="5.95655">
        <ele>464.12</ele>
        <time>2013-05-11T15:30:57Z</time>
      </trkpt>
      <trkpt lat="45.48389" lon="5.95654">
        <ele>464.7</ele>
        <time>2013-05-11T15:31:01Z</time>
      </trkpt>
      <trkpt lat="45.48393" lon="5.95649">
        <ele>465.92</ele>
        <time>2013-05-11T15:31:08Z</time>
      </trkpt>
      <trkpt lat="45.48398" lon="5.95649">
        <ele>466.93</ele>
        <time>2013-05-11T15:31:12Z</time>
      </trkpt>
      <trkpt lat="45.48403" lon="5.95649">
        <ele>467.4</ele>
        <time>2013-05-11T15:31:15Z</time>
      </trkpt>
      <trkpt lat="45.48408" lon="5.9565">
        <ele>467.63</ele>
        <time>2013-05-11T15:31:17Z</time>
      </trkpt>
      <trkpt lat="45.48413" lon="5.95649">
        <ele>467.82</ele>
        <time>2013-05-11T15:31:20Z</time>
      </trkpt>
      <trkpt lat="45.48418" lon="5.9565">
        <ele>468.04</ele>
        <time>2013-05-11T15:31:23Z</time>
      </trkpt>
      <trkpt lat="45.48424" lon="5.95652">
        <ele>468.45</ele>
        <time>2013-05-11T15:31:27Z</time>
      </trkpt>
      <trkpt lat="45.4843" lon="5.95653">
        <ele>468.68</ele>
        <time>2013-05-11T15:31:31Z</time>
      </trkpt>
      <trkpt lat="45.48435" lon="5.95657">
        <ele>468.79</ele>
        <time>2013-05-11T15:31:35Z</time>
      </trkpt>
      <trkpt lat="45.48441" lon="5.95659">
        <ele>469.15</ele>
        <time>2013-05-11T15:31:38Z</time>
      </trkpt>
      <trkpt lat="45.48446" lon="5.95661">
        <ele>469.87</ele>
        <time>2013-05-11T15:31:41Z</time>
      </trkpt>
      <trkpt lat="45.48451" lon="5.95659">
        <ele>470.15</ele>
        <time>2013-05-11T15:31:42Z</time>
      </trkpt>
      <trkpt lat="45.48457" lon="5.9566">
        <ele>470.65</ele>
        <time>2013-05-11T15:31:44Z</time>
      </trkpt>
      <trkpt lat="45.48462" lon="5.9566">
        <ele>471.2</ele>
        <time>2013-05-11T15:31:47Z</time>
      </trkpt>
      <trkpt lat="45.48467" lon="5.9566">
        <ele>471.53</ele>
        <time>2013-05-11T15:31:49Z</time>
      </trkpt>
      <trkpt lat="45.48473" lon="5.95663">
        <ele>472.42</ele>
        <time>2013-05-11T15:31:52Z</time>
      </trkpt>
      <trkpt lat="45.48478" lon="5.95666">
        <ele>474.94</ele>
        <time>2013-05-11T15:31:57Z</time>
      </trkpt>
      <trkpt lat="45.48483" lon="5.95669">
        <ele>475.87</ele>
        <time>2013-05-11T15:32:00Z</time>
      </trkpt>
      <trkpt lat="45.48488" lon="5.95674">
        <ele>476.5</ele>
        <time>2013-05-11T15:32:04Z</time>
      </trkpt>
      <trkpt lat="45.48493" lon="5.95676">
        <ele>476.69</ele>
        <time>2013-05-11T15:32:06Z</time>
      </trkpt>
      <trkpt lat="45.48497" lon="5.95673">
        <ele>476.79</ele>
        <time>2013-05-11T15:32:09Z</time>
      </trkpt>
      <trkpt lat="45.48503" lon="5.9567">
        <ele>476.84</ele>
        <time>2013-05-11T15:32:13Z</time>
      </trkpt>
      <trkpt lat="45.48508" lon="5.95671">
        <ele>476.98</ele>
        <time>2013-05-11T15:32:17Z</time>
      </trkpt>
      <trkpt lat="45.48513" lon="5.95669">
        <ele>476.78</ele>
        <time>2013-05-11T15:32:23Z</time>
      </trkpt>
      <trkpt lat="45.48518" lon="5.95669">
        <ele>476.63</ele>
        <time>2013-05-11T15:32:28Z</time>
      </trkpt>
      <trkpt lat="45.48523" lon="5.95667">
        <ele>476.71</ele>
        <time>2013-05-11T15:32:32Z</time>
      </trkpt>
      <trkpt lat="45.48529" lon="5.95663">
        <ele>476.67</ele>
        <time>2013-05-11T15:32:34Z</time>
      </trkpt>
      <trkpt lat="45.48534" lon="5.95664">
        <ele>476.51</ele>
        <time>2013-05-11T15:32:36Z</time>
      </trkpt>
      <trkpt lat="45.48539" lon="5.9566">
        <ele>476.16</ele>
        <time>2013-05-11T15:32:40Z</time>
      </trkpt>
      <trkpt lat="45.48545" lon="5.9566">
        <ele>476</ele>
        <time>2013-05-11T15:32:43Z</time>
      </trkpt>
      <trkpt lat="45.48552" lon="5.95659">
        <ele>475.76</ele>
        <time>2013-05-11T15:32:47Z</time>
      </trkpt>
      <trkpt lat="45.48557" lon="5.95655">
        <ele>475.61</ele>
        <time>2013-05-11T15:32:49Z</time>
      </trkpt>
      <trkpt lat="45.48565" lon="5.95651">
        <ele>475.33</ele>
        <time>2013-05-11T15:32:52Z</time>
      </trkpt>
      <trkpt lat="45.4857" lon="5.95649">
        <ele>474.95</ele>
        <time>2013-05-11T15:32:55Z</time>
      </trkpt>
      <trkpt lat="45.48569" lon="5.95642">
        <ele>474.34</ele>
        <time>2013-05-11T15:33:00Z</time>
      </trkpt>
      <trkpt lat="45.48573" lon="5.95637">
        <ele>473.92</ele>
        <time>2013-05-11T15:33:04Z</time>
      </trkpt>
      <trkpt lat="45.48572" lon="5.95629">
        <ele>473.78</ele>
        <time>2013-05-11T15:33:09Z</time>
      </trkpt>
      <trkpt lat="45.4857" lon="5.95623">
        <ele>473.66</ele>
        <time>2013-05-11T15:33:14Z</time>
      </trkpt>
      <trkpt lat="45.48573" lon="5.95619">
        <ele>473.57</ele>
        <time>2013-05-11T15:33:17Z</time>
      </trkpt>
      <trkpt lat="45.48577" lon="5.95616">
        <ele>473.53</ele>
        <time>2013-05-11T15:33:19Z</time>
      </trkpt>
      <trkpt lat="45.48582" lon="5.95612">
        <ele>473.44</ele>
        <time>2013-05-11T15:33:23Z</time>
      </trkpt>
      <trkpt lat="45.48582" lon="5.95605">
        <ele>473.74</ele>
        <time>2013-05-11T15:33:28Z</time>
      </trkpt>
      <trkpt lat="45.48587" lon="5.956">
        <ele>474.1</ele>
        <time>2013-05-11T15:33:31Z</time>
      </trkpt>
      <trkpt lat="45.48592" lon="5.95598">
        <ele>474.62</ele>
        <time>2013-05-11T15:33:36Z</time>
      </trkpt>
    </trkseg>
  </trk>
</gpx>